<?xml version="1.0" encoding="UTF-8" standalone="no" ?>
<gpx xmlns="http://www.topografix.com/GPX/1/1" xmlns:xsi="http://www.w3.org/2001/XMLSchema-instance" xsi:schemaLocation="http://www.topografix.com/GPX/1/1 http://www.topografix.com/GPX/1/1/gpx.xsd" version="1.1" creator="VisuGPX - https://www.visugpx.com">
  <metadata>
    <name>velo tri manosque 2010</name>
    <desc><![CDATA[velo tri manosque 2010]]></desc>
  </metadata>
  <trk>
    <name><![CDATA[2010-06-27T07_3]]></name>
    <trkseg>
      <trkpt lat="43.83335" lon="5.83946">
        <ele>286.6102295</ele>
        <time>2010-06-27T07:38:41Z</time>
      </trkpt>
      <trkpt lat="43.83339" lon="5.83945">
        <ele>288.0522461</ele>
        <time>2010-06-27T07:38:42Z</time>
      </trkpt>
      <trkpt lat="43.8335" lon="5.83918">
        <ele>286.6102295</ele>
        <time>2010-06-27T07:38:47Z</time>
      </trkpt>
      <trkpt lat="43.83353" lon="5.83905">
        <ele>287.0908203</ele>
        <time>2010-06-27T07:38:49Z</time>
      </trkpt>
      <trkpt lat="43.83358" lon="5.83888">
        <ele>286.1295166</ele>
        <time>2010-06-27T07:38:52Z</time>
      </trkpt>
      <trkpt lat="43.83377" lon="5.8385">
        <ele>280.8424072</ele>
        <time>2010-06-27T07:38:58Z</time>
      </trkpt>
      <trkpt lat="43.83394" lon="5.83813">
        <ele>283.2456055</ele>
        <time>2010-06-27T07:39:03Z</time>
      </trkpt>
      <trkpt lat="43.83404" lon="5.83788">
        <ele>283.7261963</ele>
        <time>2010-06-27T07:39:06Z</time>
      </trkpt>
      <trkpt lat="43.83432" lon="5.83733">
        <ele>285.1682129</ele>
        <time>2010-06-27T07:39:13Z</time>
      </trkpt>
      <trkpt lat="43.83454" lon="5.83691">
        <ele>285.6488037</ele>
        <time>2010-06-27T07:39:18Z</time>
      </trkpt>
      <trkpt lat="43.83483" lon="5.8364">
        <ele>288.0522461</ele>
        <time>2010-06-27T07:39:24Z</time>
      </trkpt>
      <trkpt lat="43.83494" lon="5.836">
        <ele>289.0135498</ele>
        <time>2010-06-27T07:39:28Z</time>
      </trkpt>
      <trkpt lat="43.83499" lon="5.83568">
        <ele>290.4555664</ele>
        <time>2010-06-27T07:39:31Z</time>
      </trkpt>
      <trkpt lat="43.8352" lon="5.83518">
        <ele>294.7813721</ele>
        <time>2010-06-27T07:39:36Z</time>
      </trkpt>
      <trkpt lat="43.83578" lon="5.83417">
        <ele>301.991333</ele>
        <time>2010-06-27T07:39:47Z</time>
      </trkpt>
      <trkpt lat="43.83612" lon="5.83354">
        <ele>305.355957</ele>
        <time>2010-06-27T07:39:54Z</time>
      </trkpt>
      <trkpt lat="43.83657" lon="5.83286">
        <ele>306.7978516</ele>
        <time>2010-06-27T07:40:02Z</time>
      </trkpt>
      <trkpt lat="43.83715" lon="5.83222">
        <ele>307.2785645</ele>
        <time>2010-06-27T07:40:11Z</time>
      </trkpt>
      <trkpt lat="43.83727" lon="5.83207">
        <ele>307.7592773</ele>
        <time>2010-06-27T07:40:13Z</time>
      </trkpt>
      <trkpt lat="43.83739" lon="5.83176">
        <ele>308.2398682</ele>
        <time>2010-06-27T07:40:17Z</time>
      </trkpt>
      <trkpt lat="43.83732" lon="5.83162">
        <ele>308.720459</ele>
        <time>2010-06-27T07:40:19Z</time>
      </trkpt>
      <trkpt lat="43.83719" lon="5.83139">
        <ele>309.2011719</ele>
        <time>2010-06-27T07:40:22Z</time>
      </trkpt>
      <trkpt lat="43.83706" lon="5.83078">
        <ele>310.1624756</ele>
        <time>2010-06-27T07:40:28Z</time>
      </trkpt>
      <trkpt lat="43.83691" lon="5.82999">
        <ele>311.1237793</ele>
        <time>2010-06-27T07:40:35Z</time>
      </trkpt>
      <trkpt lat="43.83671" lon="5.82921">
        <ele>311.6044922</ele>
        <time>2010-06-27T07:40:42Z</time>
      </trkpt>
      <trkpt lat="43.83643" lon="5.82834">
        <ele>313.0465088</ele>
        <time>2010-06-27T07:40:50Z</time>
      </trkpt>
      <trkpt lat="43.8362" lon="5.82802">
        <ele>314.4884033</ele>
        <time>2010-06-27T07:40:54Z</time>
      </trkpt>
      <trkpt lat="43.83582" lon="5.82771">
        <ele>315.9304199</ele>
        <time>2010-06-27T07:41:00Z</time>
      </trkpt>
      <trkpt lat="43.83547" lon="5.82758">
        <ele>316.8917236</ele>
        <time>2010-06-27T07:41:05Z</time>
      </trkpt>
      <trkpt lat="43.83499" lon="5.82751">
        <ele>316.4110107</ele>
        <time>2010-06-27T07:41:11Z</time>
      </trkpt>
      <trkpt lat="43.83439" lon="5.82743">
        <ele>315.4498291</ele>
        <time>2010-06-27T07:41:18Z</time>
      </trkpt>
      <trkpt lat="43.83386" lon="5.82734">
        <ele>314.0078125</ele>
        <time>2010-06-27T07:41:24Z</time>
      </trkpt>
      <trkpt lat="43.83325" lon="5.82716">
        <ele>312.5657959</ele>
        <time>2010-06-27T07:41:31Z</time>
      </trkpt>
      <trkpt lat="43.83292" lon="5.82702">
        <ele>313.0465088</ele>
        <time>2010-06-27T07:41:35Z</time>
      </trkpt>
      <trkpt lat="43.83252" lon="5.82661">
        <ele>314.0078125</ele>
        <time>2010-06-27T07:41:41Z</time>
      </trkpt>
      <trkpt lat="43.83197" lon="5.82597">
        <ele>314.0078125</ele>
        <time>2010-06-27T07:41:49Z</time>
      </trkpt>
      <trkpt lat="43.83134" lon="5.8253">
        <ele>312.5657959</ele>
        <time>2010-06-27T07:41:57Z</time>
      </trkpt>
      <trkpt lat="43.83084" lon="5.82476">
        <ele>312.5657959</ele>
        <time>2010-06-27T07:42:03Z</time>
      </trkpt>
      <trkpt lat="43.83024" lon="5.82412">
        <ele>311.6044922</ele>
        <time>2010-06-27T07:42:10Z</time>
      </trkpt>
      <trkpt lat="43.82998" lon="5.82384">
        <ele>311.1237793</ele>
        <time>2010-06-27T07:42:13Z</time>
      </trkpt>
      <trkpt lat="43.82966" lon="5.82346">
        <ele>310.6430664</ele>
        <time>2010-06-27T07:42:17Z</time>
      </trkpt>
      <trkpt lat="43.82908" lon="5.82283">
        <ele>309.6818848</ele>
        <time>2010-06-27T07:42:24Z</time>
      </trkpt>
      <trkpt lat="43.82837" lon="5.82203">
        <ele>308.2398682</ele>
        <time>2010-06-27T07:42:33Z</time>
      </trkpt>
      <trkpt lat="43.82792" lon="5.82152">
        <ele>308.720459</ele>
        <time>2010-06-27T07:42:39Z</time>
      </trkpt>
      <trkpt lat="43.82759" lon="5.82116">
        <ele>311.1237793</ele>
        <time>2010-06-27T07:42:44Z</time>
      </trkpt>
      <trkpt lat="43.82721" lon="5.82088">
        <ele>314.0078125</ele>
        <time>2010-06-27T07:42:50Z</time>
      </trkpt>
      <trkpt lat="43.82715" lon="5.82083">
        <ele>314.4884033</ele>
        <time>2010-06-27T07:42:51Z</time>
      </trkpt>
      <trkpt lat="43.82695" lon="5.82057">
        <ele>316.4110107</ele>
        <time>2010-06-27T07:42:55Z</time>
      </trkpt>
      <trkpt lat="43.82665" lon="5.8198">
        <ele>317.3724365</ele>
        <time>2010-06-27T07:43:03Z</time>
      </trkpt>
      <trkpt lat="43.82639" lon="5.81902">
        <ele>316.8917236</ele>
        <time>2010-06-27T07:43:10Z</time>
      </trkpt>
      <trkpt lat="43.82622" lon="5.81843">
        <ele>316.8917236</ele>
        <time>2010-06-27T07:43:15Z</time>
      </trkpt>
      <trkpt lat="43.82605" lon="5.81756">
        <ele>315.4498291</ele>
        <time>2010-06-27T07:43:22Z</time>
      </trkpt>
      <trkpt lat="43.82595" lon="5.81665">
        <ele>313.5272217</ele>
        <time>2010-06-27T07:43:29Z</time>
      </trkpt>
      <trkpt lat="43.82587" lon="5.81575">
        <ele>313.0465088</ele>
        <time>2010-06-27T07:43:36Z</time>
      </trkpt>
      <trkpt lat="43.82578" lon="5.81473">
        <ele>312.0852051</ele>
        <time>2010-06-27T07:43:44Z</time>
      </trkpt>
      <trkpt lat="43.82566" lon="5.81355">
        <ele>312.5657959</ele>
        <time>2010-06-27T07:43:53Z</time>
      </trkpt>
      <trkpt lat="43.82557" lon="5.81287">
        <ele>313.0465088</ele>
        <time>2010-06-27T07:43:58Z</time>
      </trkpt>
      <trkpt lat="43.82547" lon="5.81236">
        <ele>313.5272217</ele>
        <time>2010-06-27T07:44:02Z</time>
      </trkpt>
      <trkpt lat="43.82533" lon="5.81178">
        <ele>314.0078125</ele>
        <time>2010-06-27T07:44:07Z</time>
      </trkpt>
      <trkpt lat="43.82532" lon="5.81128">
        <ele>314.0078125</ele>
        <time>2010-06-27T07:44:11Z</time>
      </trkpt>
      <trkpt lat="43.82533" lon="5.81048">
        <ele>314.4884033</ele>
        <time>2010-06-27T07:44:17Z</time>
      </trkpt>
      <trkpt lat="43.82524" lon="5.80953">
        <ele>313.5272217</ele>
        <time>2010-06-27T07:44:24Z</time>
      </trkpt>
      <trkpt lat="43.82511" lon="5.80833">
        <ele>314.9691162</ele>
        <time>2010-06-27T07:44:33Z</time>
      </trkpt>
      <trkpt lat="43.82498" lon="5.80728">
        <ele>314.9691162</ele>
        <time>2010-06-27T07:44:41Z</time>
      </trkpt>
      <trkpt lat="43.82483" lon="5.80627">
        <ele>316.8917236</ele>
        <time>2010-06-27T07:44:49Z</time>
      </trkpt>
      <trkpt lat="43.82472" lon="5.80559">
        <ele>319.2950439</ele>
        <time>2010-06-27T07:44:55Z</time>
      </trkpt>
      <trkpt lat="43.82459" lon="5.80463">
        <ele>318.8143311</ele>
        <time>2010-06-27T07:45:03Z</time>
      </trkpt>
      <trkpt lat="43.82443" lon="5.80401">
        <ele>317.8530273</ele>
        <time>2010-06-27T07:45:08Z</time>
      </trkpt>
      <trkpt lat="43.82422" lon="5.80357">
        <ele>318.3336182</ele>
        <time>2010-06-27T07:45:12Z</time>
      </trkpt>
      <trkpt lat="43.82393" lon="5.80322">
        <ele>317.8530273</ele>
        <time>2010-06-27T07:45:16Z</time>
      </trkpt>
      <trkpt lat="43.82332" lon="5.80264">
        <ele>318.8143311</ele>
        <time>2010-06-27T07:45:24Z</time>
      </trkpt>
      <trkpt lat="43.82273" lon="5.80217">
        <ele>319.2950439</ele>
        <time>2010-06-27T07:45:31Z</time>
      </trkpt>
      <trkpt lat="43.82211" lon="5.80175">
        <ele>318.3336182</ele>
        <time>2010-06-27T07:45:38Z</time>
      </trkpt>
      <trkpt lat="43.8214" lon="5.80126">
        <ele>318.3336182</ele>
        <time>2010-06-27T07:45:46Z</time>
      </trkpt>
      <trkpt lat="43.82076" lon="5.8009">
        <ele>317.8530273</ele>
        <time>2010-06-27T07:45:53Z</time>
      </trkpt>
      <trkpt lat="43.82037" lon="5.80084">
        <ele>317.8530273</ele>
        <time>2010-06-27T07:45:57Z</time>
      </trkpt>
      <trkpt lat="43.81971" lon="5.80086">
        <ele>318.3336182</ele>
        <time>2010-06-27T07:46:04Z</time>
      </trkpt>
      <trkpt lat="43.81924" lon="5.80089">
        <ele>318.3336182</ele>
        <time>2010-06-27T07:46:09Z</time>
      </trkpt>
      <trkpt lat="43.81867" lon="5.80097">
        <ele>318.3336182</ele>
        <time>2010-06-27T07:46:15Z</time>
      </trkpt>
      <trkpt lat="43.8182" lon="5.80095">
        <ele>318.3336182</ele>
        <time>2010-06-27T07:46:20Z</time>
      </trkpt>
      <trkpt lat="43.81811" lon="5.80094">
        <ele>317.8530273</ele>
        <time>2010-06-27T07:46:21Z</time>
      </trkpt>
      <trkpt lat="43.81761" lon="5.80069">
        <ele>318.8143311</ele>
        <time>2010-06-27T07:46:27Z</time>
      </trkpt>
      <trkpt lat="43.81712" lon="5.80027">
        <ele>319.2950439</ele>
        <time>2010-06-27T07:46:34Z</time>
      </trkpt>
      <trkpt lat="43.81665" lon="5.79982">
        <ele>319.7756348</ele>
        <time>2010-06-27T07:46:41Z</time>
      </trkpt>
      <trkpt lat="43.81644" lon="5.79976">
        <ele>319.7756348</ele>
        <time>2010-06-27T07:46:44Z</time>
      </trkpt>
      <trkpt lat="43.81625" lon="5.79992">
        <ele>318.8143311</ele>
        <time>2010-06-27T07:46:47Z</time>
      </trkpt>
      <trkpt lat="43.81577" lon="5.80047">
        <ele>316.4110107</ele>
        <time>2010-06-27T07:46:54Z</time>
      </trkpt>
      <trkpt lat="43.81539" lon="5.80097">
        <ele>316.8917236</ele>
        <time>2010-06-27T07:46:59Z</time>
      </trkpt>
      <trkpt lat="43.81496" lon="5.8016">
        <ele>316.4110107</ele>
        <time>2010-06-27T07:47:05Z</time>
      </trkpt>
      <trkpt lat="43.8147" lon="5.80206">
        <ele>315.9304199</ele>
        <time>2010-06-27T07:47:09Z</time>
      </trkpt>
      <trkpt lat="43.81425" lon="5.80283">
        <ele>314.4884033</ele>
        <time>2010-06-27T07:47:16Z</time>
      </trkpt>
      <trkpt lat="43.81395" lon="5.80337">
        <ele>314.4884033</ele>
        <time>2010-06-27T07:47:21Z</time>
      </trkpt>
      <trkpt lat="43.81355" lon="5.80429">
        <ele>313.0465088</ele>
        <time>2010-06-27T07:47:29Z</time>
      </trkpt>
      <trkpt lat="43.81328" lon="5.805">
        <ele>311.6044922</ele>
        <time>2010-06-27T07:47:35Z</time>
      </trkpt>
      <trkpt lat="43.81298" lon="5.80582">
        <ele>310.1624756</ele>
        <time>2010-06-27T07:47:42Z</time>
      </trkpt>
      <trkpt lat="43.8127" lon="5.80665">
        <ele>307.2785645</ele>
        <time>2010-06-27T07:47:49Z</time>
      </trkpt>
      <trkpt lat="43.81239" lon="5.80747">
        <ele>305.355957</ele>
        <time>2010-06-27T07:47:56Z</time>
      </trkpt>
      <trkpt lat="43.81195" lon="5.80849">
        <ele>303.9139404</ele>
        <time>2010-06-27T07:48:05Z</time>
      </trkpt>
      <trkpt lat="43.81146" lon="5.80946">
        <ele>303.9139404</ele>
        <time>2010-06-27T07:48:14Z</time>
      </trkpt>
      <trkpt lat="43.81113" lon="5.8101">
        <ele>302.4719238</ele>
        <time>2010-06-27T07:48:20Z</time>
      </trkpt>
      <trkpt lat="43.81065" lon="5.81103">
        <ele>301.0299072</ele>
        <time>2010-06-27T07:48:29Z</time>
      </trkpt>
      <trkpt lat="43.81041" lon="5.81143">
        <ele>300.0687256</ele>
        <time>2010-06-27T07:48:33Z</time>
      </trkpt>
      <trkpt lat="43.81002" lon="5.81176">
        <ele>299.1072998</ele>
        <time>2010-06-27T07:48:38Z</time>
      </trkpt>
      <trkpt lat="43.80993" lon="5.81179">
        <ele>299.1072998</ele>
        <time>2010-06-27T07:48:39Z</time>
      </trkpt>
      <trkpt lat="43.80962" lon="5.81197">
        <ele>298.626709</ele>
        <time>2010-06-27T07:48:43Z</time>
      </trkpt>
      <trkpt lat="43.80959" lon="5.81218">
        <ele>298.1461182</ele>
        <time>2010-06-27T07:48:45Z</time>
      </trkpt>
      <trkpt lat="43.80968" lon="5.81249">
        <ele>297.1846924</ele>
        <time>2010-06-27T07:48:48Z</time>
      </trkpt>
      <trkpt lat="43.80973" lon="5.81282">
        <ele>297.1846924</ele>
        <time>2010-06-27T07:48:51Z</time>
      </trkpt>
      <trkpt lat="43.80965" lon="5.81302">
        <ele>296.7041016</ele>
        <time>2010-06-27T07:48:53Z</time>
      </trkpt>
      <trkpt lat="43.80923" lon="5.81378">
        <ele>296.2235107</ele>
        <time>2010-06-27T07:49:01Z</time>
      </trkpt>
      <trkpt lat="43.80875" lon="5.8147">
        <ele>295.7426758</ele>
        <time>2010-06-27T07:49:10Z</time>
      </trkpt>
      <trkpt lat="43.80842" lon="5.81529">
        <ele>297.1846924</ele>
        <time>2010-06-27T07:49:16Z</time>
      </trkpt>
      <trkpt lat="43.80823" lon="5.81565">
        <ele>298.626709</ele>
        <time>2010-06-27T07:49:20Z</time>
      </trkpt>
      <trkpt lat="43.80791" lon="5.81626">
        <ele>300.5493164</ele>
        <time>2010-06-27T07:49:27Z</time>
      </trkpt>
      <trkpt lat="43.80758" lon="5.81697">
        <ele>301.5106201</ele>
        <time>2010-06-27T07:49:35Z</time>
      </trkpt>
      <trkpt lat="43.80727" lon="5.81764">
        <ele>301.0299072</ele>
        <time>2010-06-27T07:49:42Z</time>
      </trkpt>
      <trkpt lat="43.80697" lon="5.81838">
        <ele>300.0687256</ele>
        <time>2010-06-27T07:49:49Z</time>
      </trkpt>
      <trkpt lat="43.80676" lon="5.81895">
        <ele>298.626709</ele>
        <time>2010-06-27T07:49:54Z</time>
      </trkpt>
      <trkpt lat="43.80651" lon="5.81932">
        <ele>297.1846924</ele>
        <time>2010-06-27T07:49:58Z</time>
      </trkpt>
      <trkpt lat="43.80643" lon="5.81953">
        <ele>297.1846924</ele>
        <time>2010-06-27T07:50:00Z</time>
      </trkpt>
      <trkpt lat="43.80641" lon="5.81965">
        <ele>297.1846924</ele>
        <time>2010-06-27T07:50:01Z</time>
      </trkpt>
      <trkpt lat="43.80624" lon="5.82036">
        <ele>296.7041016</ele>
        <time>2010-06-27T07:50:07Z</time>
      </trkpt>
      <trkpt lat="43.80607" lon="5.82081">
        <ele>295.2619629</ele>
        <time>2010-06-27T07:50:11Z</time>
      </trkpt>
      <trkpt lat="43.80579" lon="5.82149">
        <ele>294.7813721</ele>
        <time>2010-06-27T07:50:17Z</time>
      </trkpt>
      <trkpt lat="43.80549" lon="5.82216">
        <ele>294.7813721</ele>
        <time>2010-06-27T07:50:23Z</time>
      </trkpt>
      <trkpt lat="43.80527" lon="5.82266">
        <ele>293.3393555</ele>
        <time>2010-06-27T07:50:28Z</time>
      </trkpt>
      <trkpt lat="43.80512" lon="5.82299">
        <ele>292.8587646</ele>
        <time>2010-06-27T07:50:31Z</time>
      </trkpt>
      <trkpt lat="43.80499" lon="5.82324">
        <ele>293.3393555</ele>
        <time>2010-06-27T07:50:33Z</time>
      </trkpt>
      <trkpt lat="43.80494" lon="5.82334">
        <ele>293.8200684</ele>
        <time>2010-06-27T07:50:34Z</time>
      </trkpt>
      <trkpt lat="43.80475" lon="5.82375">
        <ele>295.2619629</ele>
        <time>2010-06-27T07:50:38Z</time>
      </trkpt>
      <trkpt lat="43.80436" lon="5.82462">
        <ele>296.7041016</ele>
        <time>2010-06-27T07:50:47Z</time>
      </trkpt>
      <trkpt lat="43.8039" lon="5.82564">
        <ele>295.7426758</ele>
        <time>2010-06-27T07:50:57Z</time>
      </trkpt>
      <trkpt lat="43.80356" lon="5.82641">
        <ele>295.7426758</ele>
        <time>2010-06-27T07:51:04Z</time>
      </trkpt>
      <trkpt lat="43.80316" lon="5.8273">
        <ele>295.2619629</ele>
        <time>2010-06-27T07:51:12Z</time>
      </trkpt>
      <trkpt lat="43.80278" lon="5.82815">
        <ele>295.2619629</ele>
        <time>2010-06-27T07:51:20Z</time>
      </trkpt>
      <trkpt lat="43.80239" lon="5.82898">
        <ele>294.3007813</ele>
        <time>2010-06-27T07:51:28Z</time>
      </trkpt>
      <trkpt lat="43.80211" lon="5.8296">
        <ele>294.7813721</ele>
        <time>2010-06-27T07:51:34Z</time>
      </trkpt>
      <trkpt lat="43.80178" lon="5.83032">
        <ele>295.7426758</ele>
        <time>2010-06-27T07:51:41Z</time>
      </trkpt>
      <trkpt lat="43.8014" lon="5.83115">
        <ele>296.2235107</ele>
        <time>2010-06-27T07:51:49Z</time>
      </trkpt>
      <trkpt lat="43.80103" lon="5.832">
        <ele>295.7426758</ele>
        <time>2010-06-27T07:51:57Z</time>
      </trkpt>
      <trkpt lat="43.8006" lon="5.83293">
        <ele>296.2235107</ele>
        <time>2010-06-27T07:52:06Z</time>
      </trkpt>
      <trkpt lat="43.80032" lon="5.83321">
        <ele>296.2235107</ele>
        <time>2010-06-27T07:52:10Z</time>
      </trkpt>
      <trkpt lat="43.80022" lon="5.83346">
        <ele>296.2235107</ele>
        <time>2010-06-27T07:52:13Z</time>
      </trkpt>
      <trkpt lat="43.8003" lon="5.83358">
        <ele>294.7813721</ele>
        <time>2010-06-27T07:52:15Z</time>
      </trkpt>
      <trkpt lat="43.8005" lon="5.83363">
        <ele>294.3007813</ele>
        <time>2010-06-27T07:52:18Z</time>
      </trkpt>
      <trkpt lat="43.80079" lon="5.83383">
        <ele>293.8200684</ele>
        <time>2010-06-27T07:52:22Z</time>
      </trkpt>
      <trkpt lat="43.80106" lon="5.83416">
        <ele>294.3007813</ele>
        <time>2010-06-27T07:52:26Z</time>
      </trkpt>
      <trkpt lat="43.80139" lon="5.8349">
        <ele>293.8200684</ele>
        <time>2010-06-27T07:52:33Z</time>
      </trkpt>
      <trkpt lat="43.80168" lon="5.83564">
        <ele>293.8200684</ele>
        <time>2010-06-27T07:52:40Z</time>
      </trkpt>
      <trkpt lat="43.80196" lon="5.83637">
        <ele>293.8200684</ele>
        <time>2010-06-27T07:52:47Z</time>
      </trkpt>
      <trkpt lat="43.80228" lon="5.8372">
        <ele>293.8200684</ele>
        <time>2010-06-27T07:52:55Z</time>
      </trkpt>
      <trkpt lat="43.80247" lon="5.83786">
        <ele>294.3007813</ele>
        <time>2010-06-27T07:53:01Z</time>
      </trkpt>
      <trkpt lat="43.80267" lon="5.83836">
        <ele>293.3393555</ele>
        <time>2010-06-27T07:53:06Z</time>
      </trkpt>
      <trkpt lat="43.80298" lon="5.83889">
        <ele>292.3781738</ele>
        <time>2010-06-27T07:53:12Z</time>
      </trkpt>
      <trkpt lat="43.80327" lon="5.83956">
        <ele>291.8974609</ele>
        <time>2010-06-27T07:53:19Z</time>
      </trkpt>
      <trkpt lat="43.80358" lon="5.84033">
        <ele>291.8974609</ele>
        <time>2010-06-27T07:53:27Z</time>
      </trkpt>
      <trkpt lat="43.80393" lon="5.84119">
        <ele>291.8974609</ele>
        <time>2010-06-27T07:53:36Z</time>
      </trkpt>
      <trkpt lat="43.80422" lon="5.84172">
        <ele>294.3007813</ele>
        <time>2010-06-27T07:53:42Z</time>
      </trkpt>
      <trkpt lat="43.80444" lon="5.84195">
        <ele>295.7426758</ele>
        <time>2010-06-27T07:53:46Z</time>
      </trkpt>
      <trkpt lat="43.80471" lon="5.84197">
        <ele>296.7041016</ele>
        <time>2010-06-27T07:53:50Z</time>
      </trkpt>
      <trkpt lat="43.80483" lon="5.84196">
        <ele>296.7041016</ele>
        <time>2010-06-27T07:53:52Z</time>
      </trkpt>
      <trkpt lat="43.80531" lon="5.84191">
        <ele>297.6654053</ele>
        <time>2010-06-27T07:53:59Z</time>
      </trkpt>
      <trkpt lat="43.80567" lon="5.84187">
        <ele>297.6654053</ele>
        <time>2010-06-27T07:54:03Z</time>
      </trkpt>
      <trkpt lat="43.80601" lon="5.842">
        <ele>297.6654053</ele>
        <time>2010-06-27T07:54:07Z</time>
      </trkpt>
      <trkpt lat="43.80674" lon="5.8425">
        <ele>294.7813721</ele>
        <time>2010-06-27T07:54:16Z</time>
      </trkpt>
      <trkpt lat="43.80741" lon="5.84279">
        <ele>295.2619629</ele>
        <time>2010-06-27T07:54:24Z</time>
      </trkpt>
      <trkpt lat="43.80804" lon="5.84311">
        <ele>295.7426758</ele>
        <time>2010-06-27T07:54:32Z</time>
      </trkpt>
      <trkpt lat="43.80845" lon="5.8435">
        <ele>296.7041016</ele>
        <time>2010-06-27T07:54:38Z</time>
      </trkpt>
      <trkpt lat="43.80888" lon="5.844">
        <ele>297.1846924</ele>
        <time>2010-06-27T07:54:45Z</time>
      </trkpt>
      <trkpt lat="43.80939" lon="5.84472">
        <ele>297.1846924</ele>
        <time>2010-06-27T07:54:54Z</time>
      </trkpt>
      <trkpt lat="43.80973" lon="5.84506">
        <ele>297.1846924</ele>
        <time>2010-06-27T07:54:59Z</time>
      </trkpt>
      <trkpt lat="43.81032" lon="5.84533">
        <ele>297.1846924</ele>
        <time>2010-06-27T07:55:06Z</time>
      </trkpt>
      <trkpt lat="43.81087" lon="5.8457">
        <ele>296.7041016</ele>
        <time>2010-06-27T07:55:13Z</time>
      </trkpt>
      <trkpt lat="43.81141" lon="5.84609">
        <ele>296.7041016</ele>
        <time>2010-06-27T07:55:20Z</time>
      </trkpt>
      <trkpt lat="43.81211" lon="5.8465">
        <ele>296.7041016</ele>
        <time>2010-06-27T07:55:29Z</time>
      </trkpt>
      <trkpt lat="43.81268" lon="5.84679">
        <ele>297.6654053</ele>
        <time>2010-06-27T07:55:36Z</time>
      </trkpt>
      <trkpt lat="43.81333" lon="5.84712">
        <ele>298.626709</ele>
        <time>2010-06-27T07:55:44Z</time>
      </trkpt>
      <trkpt lat="43.8141" lon="5.84756">
        <ele>298.626709</ele>
        <time>2010-06-27T07:55:54Z</time>
      </trkpt>
      <trkpt lat="43.81452" lon="5.84792">
        <ele>298.626709</ele>
        <time>2010-06-27T07:56:00Z</time>
      </trkpt>
      <trkpt lat="43.81494" lon="5.84847">
        <ele>300.0687256</ele>
        <time>2010-06-27T07:56:07Z</time>
      </trkpt>
      <trkpt lat="43.81521" lon="5.8489">
        <ele>301.991333</ele>
        <time>2010-06-27T07:56:12Z</time>
      </trkpt>
      <trkpt lat="43.81552" lon="5.84929">
        <ele>301.991333</ele>
        <time>2010-06-27T07:56:17Z</time>
      </trkpt>
      <trkpt lat="43.81594" lon="5.84964">
        <ele>302.4719238</ele>
        <time>2010-06-27T07:56:23Z</time>
      </trkpt>
      <trkpt lat="43.81648" lon="5.84991">
        <ele>302.9525146</ele>
        <time>2010-06-27T07:56:30Z</time>
      </trkpt>
      <trkpt lat="43.81679" lon="5.85004">
        <ele>304.3946533</ele>
        <time>2010-06-27T07:56:34Z</time>
      </trkpt>
      <trkpt lat="43.81722" lon="5.8504">
        <ele>303.9139404</ele>
        <time>2010-06-27T07:56:40Z</time>
      </trkpt>
      <trkpt lat="43.81769" lon="5.8509">
        <ele>301.5106201</ele>
        <time>2010-06-27T07:56:47Z</time>
      </trkpt>
      <trkpt lat="43.81799" lon="5.85106">
        <ele>301.0299072</ele>
        <time>2010-06-27T07:56:51Z</time>
      </trkpt>
      <trkpt lat="43.81814" lon="5.85102">
        <ele>301.5106201</ele>
        <time>2010-06-27T07:56:53Z</time>
      </trkpt>
      <trkpt lat="43.81864" lon="5.85089">
        <ele>301.5106201</ele>
        <time>2010-06-27T07:57:00Z</time>
      </trkpt>
      <trkpt lat="43.81871" lon="5.85088">
        <ele>301.5106201</ele>
        <time>2010-06-27T07:57:01Z</time>
      </trkpt>
      <trkpt lat="43.81913" lon="5.851">
        <ele>301.5106201</ele>
        <time>2010-06-27T07:57:06Z</time>
      </trkpt>
      <trkpt lat="43.81933" lon="5.85123">
        <ele>301.991333</ele>
        <time>2010-06-27T07:57:09Z</time>
      </trkpt>
      <trkpt lat="43.81945" lon="5.85156">
        <ele>301.991333</ele>
        <time>2010-06-27T07:57:12Z</time>
      </trkpt>
      <trkpt lat="43.81945" lon="5.85192">
        <ele>302.4719238</ele>
        <time>2010-06-27T07:57:15Z</time>
      </trkpt>
      <trkpt lat="43.81947" lon="5.85249">
        <ele>301.5106201</ele>
        <time>2010-06-27T07:57:20Z</time>
      </trkpt>
      <trkpt lat="43.8195" lon="5.85258">
        <ele>301.0299072</ele>
        <time>2010-06-27T07:57:21Z</time>
      </trkpt>
      <trkpt lat="43.81986" lon="5.85272">
        <ele>302.4719238</ele>
        <time>2010-06-27T07:57:25Z</time>
      </trkpt>
      <trkpt lat="43.82016" lon="5.85274">
        <ele>302.9525146</ele>
        <time>2010-06-27T07:57:28Z</time>
      </trkpt>
      <trkpt lat="43.82062" lon="5.85287">
        <ele>301.991333</ele>
        <time>2010-06-27T07:57:33Z</time>
      </trkpt>
      <trkpt lat="43.82113" lon="5.85315">
        <ele>302.4719238</ele>
        <time>2010-06-27T07:57:39Z</time>
      </trkpt>
      <trkpt lat="43.8216" lon="5.85328">
        <ele>304.8752441</ele>
        <time>2010-06-27T07:57:45Z</time>
      </trkpt>
      <trkpt lat="43.82206" lon="5.85349">
        <ele>305.8366699</ele>
        <time>2010-06-27T07:57:52Z</time>
      </trkpt>
      <trkpt lat="43.82254" lon="5.85378">
        <ele>306.3172607</ele>
        <time>2010-06-27T07:57:59Z</time>
      </trkpt>
      <trkpt lat="43.82299" lon="5.85402">
        <ele>303.9139404</ele>
        <time>2010-06-27T07:58:04Z</time>
      </trkpt>
      <trkpt lat="43.82345" lon="5.85434">
        <ele>302.9525146</ele>
        <time>2010-06-27T07:58:09Z</time>
      </trkpt>
      <trkpt lat="43.82372" lon="5.85453">
        <ele>302.4719238</ele>
        <time>2010-06-27T07:58:12Z</time>
      </trkpt>
      <trkpt lat="43.82408" lon="5.85459">
        <ele>302.4719238</ele>
        <time>2010-06-27T07:58:16Z</time>
      </trkpt>
      <trkpt lat="43.82426" lon="5.85453">
        <ele>302.9525146</ele>
        <time>2010-06-27T07:58:18Z</time>
      </trkpt>
      <trkpt lat="43.8247" lon="5.85449">
        <ele>304.8752441</ele>
        <time>2010-06-27T07:58:23Z</time>
      </trkpt>
      <trkpt lat="43.82491" lon="5.85464">
        <ele>304.8752441</ele>
        <time>2010-06-27T07:58:26Z</time>
      </trkpt>
      <trkpt lat="43.82502" lon="5.85481">
        <ele>304.8752441</ele>
        <time>2010-06-27T07:58:28Z</time>
      </trkpt>
      <trkpt lat="43.82523" lon="5.85532">
        <ele>304.3946533</ele>
        <time>2010-06-27T07:58:33Z</time>
      </trkpt>
      <trkpt lat="43.82546" lon="5.85566">
        <ele>303.4332275</ele>
        <time>2010-06-27T07:58:37Z</time>
      </trkpt>
      <trkpt lat="43.82554" lon="5.85571">
        <ele>303.4332275</ele>
        <time>2010-06-27T07:58:38Z</time>
      </trkpt>
      <trkpt lat="43.82611" lon="5.85597">
        <ele>305.355957</ele>
        <time>2010-06-27T07:58:45Z</time>
      </trkpt>
      <trkpt lat="43.82675" lon="5.85616">
        <ele>306.3172607</ele>
        <time>2010-06-27T07:58:53Z</time>
      </trkpt>
      <trkpt lat="43.82696" lon="5.85624">
        <ele>307.7592773</ele>
        <time>2010-06-27T07:58:56Z</time>
      </trkpt>
      <trkpt lat="43.82724" lon="5.85653">
        <ele>308.720459</ele>
        <time>2010-06-27T07:59:01Z</time>
      </trkpt>
      <trkpt lat="43.8273" lon="5.85671">
        <ele>309.2011719</ele>
        <time>2010-06-27T07:59:03Z</time>
      </trkpt>
      <trkpt lat="43.82744" lon="5.85729">
        <ele>311.6044922</ele>
        <time>2010-06-27T07:59:10Z</time>
      </trkpt>
      <trkpt lat="43.82761" lon="5.85759">
        <ele>313.0465088</ele>
        <time>2010-06-27T07:59:15Z</time>
      </trkpt>
      <trkpt lat="43.8277" lon="5.85768">
        <ele>313.0465088</ele>
        <time>2010-06-27T07:59:17Z</time>
      </trkpt>
      <trkpt lat="43.82791" lon="5.85798">
        <ele>314.9691162</ele>
        <time>2010-06-27T07:59:22Z</time>
      </trkpt>
      <trkpt lat="43.82804" lon="5.85837">
        <ele>317.3724365</ele>
        <time>2010-06-27T07:59:28Z</time>
      </trkpt>
      <trkpt lat="43.82816" lon="5.85876">
        <ele>318.8143311</ele>
        <time>2010-06-27T07:59:34Z</time>
      </trkpt>
      <trkpt lat="43.82831" lon="5.85925">
        <ele>320.7370605</ele>
        <time>2010-06-27T07:59:42Z</time>
      </trkpt>
      <trkpt lat="43.82844" lon="5.85974">
        <ele>323.6209717</ele>
        <time>2010-06-27T07:59:50Z</time>
      </trkpt>
      <trkpt lat="43.82851" lon="5.86037">
        <ele>328.4276123</ele>
        <time>2010-06-27T08:00:00Z</time>
      </trkpt>
      <trkpt lat="43.82857" lon="5.86089">
        <ele>331.3115234</ele>
        <time>2010-06-27T08:00:08Z</time>
      </trkpt>
      <trkpt lat="43.82862" lon="5.86141">
        <ele>334.1954346</ele>
        <time>2010-06-27T08:00:16Z</time>
      </trkpt>
      <trkpt lat="43.82864" lon="5.86194">
        <ele>337.5600586</ele>
        <time>2010-06-27T08:00:24Z</time>
      </trkpt>
      <trkpt lat="43.82864" lon="5.86224">
        <ele>339.482666</ele>
        <time>2010-06-27T08:00:29Z</time>
      </trkpt>
      <trkpt lat="43.82867" lon="5.86279">
        <ele>341.8859863</ele>
        <time>2010-06-27T08:00:38Z</time>
      </trkpt>
      <trkpt lat="43.82871" lon="5.86302">
        <ele>341.8859863</ele>
        <time>2010-06-27T08:00:42Z</time>
      </trkpt>
      <trkpt lat="43.82874" lon="5.86354">
        <ele>342.84729</ele>
        <time>2010-06-27T08:00:51Z</time>
      </trkpt>
      <trkpt lat="43.82873" lon="5.86406">
        <ele>345.2506104</ele>
        <time>2010-06-27T08:01:00Z</time>
      </trkpt>
      <trkpt lat="43.82882" lon="5.86418">
        <ele>345.7313232</ele>
        <time>2010-06-27T08:01:04Z</time>
      </trkpt>
      <trkpt lat="43.82889" lon="5.86407">
        <ele>346.2120361</ele>
        <time>2010-06-27T08:01:07Z</time>
      </trkpt>
      <trkpt lat="43.8289" lon="5.86383">
        <ele>345.7313232</ele>
        <time>2010-06-27T08:01:11Z</time>
      </trkpt>
      <trkpt lat="43.82893" lon="5.8637">
        <ele>346.2120361</ele>
        <time>2010-06-27T08:01:13Z</time>
      </trkpt>
      <trkpt lat="43.82903" lon="5.8633">
        <ele>347.1732178</ele>
        <time>2010-06-27T08:01:19Z</time>
      </trkpt>
      <trkpt lat="43.8292" lon="5.86291">
        <ele>349.5765381</ele>
        <time>2010-06-27T08:01:26Z</time>
      </trkpt>
      <trkpt lat="43.82935" lon="5.86234">
        <ele>354.3831787</ele>
        <time>2010-06-27T08:01:36Z</time>
      </trkpt>
      <trkpt lat="43.82949" lon="5.86171">
        <ele>358.2283936</ele>
        <time>2010-06-27T08:01:47Z</time>
      </trkpt>
      <trkpt lat="43.82959" lon="5.86134">
        <ele>360.151123</ele>
        <time>2010-06-27T08:01:54Z</time>
      </trkpt>
      <trkpt lat="43.82972" lon="5.86114">
        <ele>362.5543213</ele>
        <time>2010-06-27T08:01:59Z</time>
      </trkpt>
      <trkpt lat="43.82987" lon="5.86117">
        <ele>363.0350342</ele>
        <time>2010-06-27T08:02:03Z</time>
      </trkpt>
      <trkpt lat="43.82997" lon="5.86125">
        <ele>363.0350342</ele>
        <time>2010-06-27T08:02:06Z</time>
      </trkpt>
      <trkpt lat="43.83004" lon="5.86132">
        <ele>363.5157471</ele>
        <time>2010-06-27T08:02:08Z</time>
      </trkpt>
      <trkpt lat="43.83033" lon="5.86165">
        <ele>363.9963379</ele>
        <time>2010-06-27T08:02:16Z</time>
      </trkpt>
      <trkpt lat="43.83068" lon="5.862">
        <ele>363.0350342</ele>
        <time>2010-06-27T08:02:23Z</time>
      </trkpt>
      <trkpt lat="43.83073" lon="5.86204">
        <ele>363.0350342</ele>
        <time>2010-06-27T08:02:24Z</time>
      </trkpt>
      <trkpt lat="43.83116" lon="5.86251">
        <ele>364.9576416</ele>
        <time>2010-06-27T08:02:33Z</time>
      </trkpt>
      <trkpt lat="43.83137" lon="5.86283">
        <ele>364.4769287</ele>
        <time>2010-06-27T08:02:38Z</time>
      </trkpt>
      <trkpt lat="43.8315" lon="5.86309">
        <ele>363.9963379</ele>
        <time>2010-06-27T08:02:41Z</time>
      </trkpt>
      <trkpt lat="43.83176" lon="5.86332">
        <ele>363.9963379</ele>
        <time>2010-06-27T08:02:45Z</time>
      </trkpt>
      <trkpt lat="43.83216" lon="5.86359">
        <ele>365.4383545</ele>
        <time>2010-06-27T08:02:51Z</time>
      </trkpt>
      <trkpt lat="43.83227" lon="5.86371">
        <ele>365.9189453</ele>
        <time>2010-06-27T08:02:53Z</time>
      </trkpt>
      <trkpt lat="43.83254" lon="5.86418">
        <ele>365.9189453</ele>
        <time>2010-06-27T08:02:59Z</time>
      </trkpt>
      <trkpt lat="43.83278" lon="5.86443">
        <ele>365.9189453</ele>
        <time>2010-06-27T08:03:03Z</time>
      </trkpt>
      <trkpt lat="43.83322" lon="5.86473">
        <ele>367.3609619</ele>
        <time>2010-06-27T08:03:10Z</time>
      </trkpt>
      <trkpt lat="43.83359" lon="5.86506">
        <ele>368.3222656</ele>
        <time>2010-06-27T08:03:16Z</time>
      </trkpt>
      <trkpt lat="43.83415" lon="5.8656">
        <ele>368.3222656</ele>
        <time>2010-06-27T08:03:25Z</time>
      </trkpt>
      <trkpt lat="43.83448" lon="5.86601">
        <ele>366.880249</ele>
        <time>2010-06-27T08:03:30Z</time>
      </trkpt>
      <trkpt lat="43.83475" lon="5.86656">
        <ele>365.9189453</ele>
        <time>2010-06-27T08:03:35Z</time>
      </trkpt>
      <trkpt lat="43.835" lon="5.86727">
        <ele>364.4769287</ele>
        <time>2010-06-27T08:03:41Z</time>
      </trkpt>
      <trkpt lat="43.83524" lon="5.86761">
        <ele>364.4769287</ele>
        <time>2010-06-27T08:03:45Z</time>
      </trkpt>
      <trkpt lat="43.83538" lon="5.8677">
        <ele>364.9576416</ele>
        <time>2010-06-27T08:03:47Z</time>
      </trkpt>
      <trkpt lat="43.83581" lon="5.86793">
        <ele>367.8415527</ele>
        <time>2010-06-27T08:03:54Z</time>
      </trkpt>
      <trkpt lat="43.83605" lon="5.86814">
        <ele>368.3222656</ele>
        <time>2010-06-27T08:03:59Z</time>
      </trkpt>
      <trkpt lat="43.83627" lon="5.86853">
        <ele>367.3609619</ele>
        <time>2010-06-27T08:04:04Z</time>
      </trkpt>
      <trkpt lat="43.83631" lon="5.86862">
        <ele>367.3609619</ele>
        <time>2010-06-27T08:04:05Z</time>
      </trkpt>
      <trkpt lat="43.83657" lon="5.86884">
        <ele>367.8415527</ele>
        <time>2010-06-27T08:04:09Z</time>
      </trkpt>
      <trkpt lat="43.83704" lon="5.86907">
        <ele>369.2836914</ele>
        <time>2010-06-27T08:04:16Z</time>
      </trkpt>
      <trkpt lat="43.83733" lon="5.86933">
        <ele>370.244873</ele>
        <time>2010-06-27T08:04:21Z</time>
      </trkpt>
      <trkpt lat="43.83765" lon="5.86953">
        <ele>370.7255859</ele>
        <time>2010-06-27T08:04:26Z</time>
      </trkpt>
      <trkpt lat="43.83772" lon="5.86956">
        <ele>371.2062988</ele>
        <time>2010-06-27T08:04:27Z</time>
      </trkpt>
      <trkpt lat="43.83796" lon="5.8698">
        <ele>371.2062988</ele>
        <time>2010-06-27T08:04:31Z</time>
      </trkpt>
      <trkpt lat="43.83805" lon="5.87012">
        <ele>369.7642822</ele>
        <time>2010-06-27T08:04:34Z</time>
      </trkpt>
      <trkpt lat="43.83826" lon="5.87062">
        <ele>369.7642822</ele>
        <time>2010-06-27T08:04:39Z</time>
      </trkpt>
      <trkpt lat="43.8384" lon="5.8707">
        <ele>369.7642822</ele>
        <time>2010-06-27T08:04:41Z</time>
      </trkpt>
      <trkpt lat="43.83861" lon="5.87078">
        <ele>370.7255859</ele>
        <time>2010-06-27T08:04:44Z</time>
      </trkpt>
      <trkpt lat="43.83886" lon="5.87103">
        <ele>372.6481934</ele>
        <time>2010-06-27T08:04:49Z</time>
      </trkpt>
      <trkpt lat="43.83893" lon="5.87117">
        <ele>372.1674805</ele>
        <time>2010-06-27T08:04:51Z</time>
      </trkpt>
      <trkpt lat="43.83901" lon="5.87131">
        <ele>372.6481934</ele>
        <time>2010-06-27T08:04:53Z</time>
      </trkpt>
      <trkpt lat="43.83937" lon="5.87161">
        <ele>373.6094971</ele>
        <time>2010-06-27T08:04:59Z</time>
      </trkpt>
      <trkpt lat="43.83972" lon="5.87182">
        <ele>374.0900879</ele>
        <time>2010-06-27T08:05:04Z</time>
      </trkpt>
      <trkpt lat="43.84016" lon="5.87213">
        <ele>374.5708008</ele>
        <time>2010-06-27T08:05:10Z</time>
      </trkpt>
      <trkpt lat="43.84049" lon="5.87234">
        <ele>376.4935303</ele>
        <time>2010-06-27T08:05:15Z</time>
      </trkpt>
      <trkpt lat="43.8409" lon="5.87261">
        <ele>377.9354248</ele>
        <time>2010-06-27T08:05:22Z</time>
      </trkpt>
      <trkpt lat="43.84108" lon="5.87291">
        <ele>377.454834</ele>
        <time>2010-06-27T08:05:26Z</time>
      </trkpt>
      <trkpt lat="43.84106" lon="5.87324">
        <ele>376.9742432</ele>
        <time>2010-06-27T08:05:29Z</time>
      </trkpt>
      <trkpt lat="43.84106" lon="5.87373">
        <ele>375.0515137</ele>
        <time>2010-06-27T08:05:34Z</time>
      </trkpt>
      <trkpt lat="43.84124" lon="5.87376">
        <ele>375.0515137</ele>
        <time>2010-06-27T08:05:36Z</time>
      </trkpt>
      <trkpt lat="43.84133" lon="5.87374">
        <ele>375.0515137</ele>
        <time>2010-06-27T08:05:37Z</time>
      </trkpt>
      <trkpt lat="43.84177" lon="5.87371">
        <ele>376.4935303</ele>
        <time>2010-06-27T08:05:42Z</time>
      </trkpt>
      <trkpt lat="43.84213" lon="5.87395">
        <ele>377.9354248</ele>
        <time>2010-06-27T08:05:47Z</time>
      </trkpt>
      <trkpt lat="43.84226" lon="5.87407">
        <ele>377.9354248</ele>
        <time>2010-06-27T08:05:49Z</time>
      </trkpt>
      <trkpt lat="43.84272" lon="5.87459">
        <ele>377.9354248</ele>
        <time>2010-06-27T08:05:57Z</time>
      </trkpt>
      <trkpt lat="43.8431" lon="5.87499">
        <ele>378.8968506</ele>
        <time>2010-06-27T08:06:03Z</time>
      </trkpt>
      <trkpt lat="43.84358" lon="5.87548">
        <ele>381.3000488</ele>
        <time>2010-06-27T08:06:10Z</time>
      </trkpt>
      <trkpt lat="43.84396" lon="5.87566">
        <ele>382.7420654</ele>
        <time>2010-06-27T08:06:15Z</time>
      </trkpt>
      <trkpt lat="43.84417" lon="5.87571">
        <ele>384.184082</ele>
        <time>2010-06-27T08:06:18Z</time>
      </trkpt>
      <trkpt lat="43.84436" lon="5.87577">
        <ele>384.6647949</ele>
        <time>2010-06-27T08:06:21Z</time>
      </trkpt>
      <trkpt lat="43.84462" lon="5.87597">
        <ele>385.1453857</ele>
        <time>2010-06-27T08:06:25Z</time>
      </trkpt>
      <trkpt lat="43.84486" lon="5.87641">
        <ele>384.184082</ele>
        <time>2010-06-27T08:06:30Z</time>
      </trkpt>
      <trkpt lat="43.84492" lon="5.87691">
        <ele>382.2613525</ele>
        <time>2010-06-27T08:06:34Z</time>
      </trkpt>
      <trkpt lat="43.84499" lon="5.87724">
        <ele>381.3000488</ele>
        <time>2010-06-27T08:06:37Z</time>
      </trkpt>
      <trkpt lat="43.84512" lon="5.87731">
        <ele>380.3387451</ele>
        <time>2010-06-27T08:06:39Z</time>
      </trkpt>
      <trkpt lat="43.84522" lon="5.8773">
        <ele>380.3387451</ele>
        <time>2010-06-27T08:06:40Z</time>
      </trkpt>
      <trkpt lat="43.84589" lon="5.87717">
        <ele>378.4161377</ele>
        <time>2010-06-27T08:06:47Z</time>
      </trkpt>
      <trkpt lat="43.84636" lon="5.87701">
        <ele>378.4161377</ele>
        <time>2010-06-27T08:06:52Z</time>
      </trkpt>
      <trkpt lat="43.84698" lon="5.8766">
        <ele>376.0128174</ele>
        <time>2010-06-27T08:06:59Z</time>
      </trkpt>
      <trkpt lat="43.84728" lon="5.87661">
        <ele>374.0900879</ele>
        <time>2010-06-27T08:07:03Z</time>
      </trkpt>
      <trkpt lat="43.8474" lon="5.8768">
        <ele>372.6481934</ele>
        <time>2010-06-27T08:07:05Z</time>
      </trkpt>
      <trkpt lat="43.84772" lon="5.87736">
        <ele>368.8029785</ele>
        <time>2010-06-27T08:07:10Z</time>
      </trkpt>
      <trkpt lat="43.84793" lon="5.87784">
        <ele>365.4383545</ele>
        <time>2010-06-27T08:07:14Z</time>
      </trkpt>
      <trkpt lat="43.84802" lon="5.8782">
        <ele>361.5931396</ele>
        <time>2010-06-27T08:07:18Z</time>
      </trkpt>
      <trkpt lat="43.84792" lon="5.87837">
        <ele>359.1896973</ele>
        <time>2010-06-27T08:07:20Z</time>
      </trkpt>
      <trkpt lat="43.84772" lon="5.87864">
        <ele>356.786377</ele>
        <time>2010-06-27T08:07:23Z</time>
      </trkpt>
      <trkpt lat="43.84736" lon="5.87898">
        <ele>354.3831787</ele>
        <time>2010-06-27T08:07:27Z</time>
      </trkpt>
      <trkpt lat="43.84718" lon="5.87923">
        <ele>352.4605713</ele>
        <time>2010-06-27T08:07:30Z</time>
      </trkpt>
      <trkpt lat="43.84723" lon="5.87944">
        <ele>350.5378418</ele>
        <time>2010-06-27T08:07:33Z</time>
      </trkpt>
      <trkpt lat="43.8474" lon="5.87943">
        <ele>350.057251</ele>
        <time>2010-06-27T08:07:35Z</time>
      </trkpt>
      <trkpt lat="43.84792" lon="5.87941">
        <ele>346.2120361</ele>
        <time>2010-06-27T08:07:41Z</time>
      </trkpt>
      <trkpt lat="43.84802" lon="5.87957">
        <ele>344.7700195</ele>
        <time>2010-06-27T08:07:43Z</time>
      </trkpt>
      <trkpt lat="43.84799" lon="5.87979">
        <ele>344.2894287</ele>
        <time>2010-06-27T08:07:45Z</time>
      </trkpt>
      <trkpt lat="43.84795" lon="5.8799">
        <ele>343.8085938</ele>
        <time>2010-06-27T08:07:46Z</time>
      </trkpt>
      <trkpt lat="43.84777" lon="5.88054">
        <ele>342.84729</ele>
        <time>2010-06-27T08:07:51Z</time>
      </trkpt>
      <trkpt lat="43.84769" lon="5.88109">
        <ele>341.4052734</ele>
        <time>2010-06-27T08:07:55Z</time>
      </trkpt>
      <trkpt lat="43.84779" lon="5.88131">
        <ele>339.0020752</ele>
        <time>2010-06-27T08:07:59Z</time>
      </trkpt>
      <trkpt lat="43.84788" lon="5.88115">
        <ele>337.0794678</ele>
        <time>2010-06-27T08:08:01Z</time>
      </trkpt>
      <trkpt lat="43.84794" lon="5.88093">
        <ele>335.1567383</ele>
        <time>2010-06-27T08:08:03Z</time>
      </trkpt>
      <trkpt lat="43.84816" lon="5.88021">
        <ele>329.388916</ele>
        <time>2010-06-27T08:08:08Z</time>
      </trkpt>
      <trkpt lat="43.84824" lon="5.88008">
        <ele>328.9083252</ele>
        <time>2010-06-27T08:08:09Z</time>
      </trkpt>
      <trkpt lat="43.84876" lon="5.87928">
        <ele>324.1015625</ele>
        <time>2010-06-27T08:08:15Z</time>
      </trkpt>
      <trkpt lat="43.84916" lon="5.87903">
        <ele>321.6983643</ele>
        <time>2010-06-27T08:08:19Z</time>
      </trkpt>
      <trkpt lat="43.84936" lon="5.8791">
        <ele>320.2563477</ele>
        <time>2010-06-27T08:08:21Z</time>
      </trkpt>
      <trkpt lat="43.84976" lon="5.87933">
        <ele>318.8143311</ele>
        <time>2010-06-27T08:08:25Z</time>
      </trkpt>
      <trkpt lat="43.85017" lon="5.87981">
        <ele>317.3724365</ele>
        <time>2010-06-27T08:08:30Z</time>
      </trkpt>
      <trkpt lat="43.85077" lon="5.88065">
        <ele>315.9304199</ele>
        <time>2010-06-27T08:08:38Z</time>
      </trkpt>
      <trkpt lat="43.85136" lon="5.88142">
        <ele>315.9304199</ele>
        <time>2010-06-27T08:08:46Z</time>
      </trkpt>
      <trkpt lat="43.85208" lon="5.88233">
        <ele>316.8917236</ele>
        <time>2010-06-27T08:08:56Z</time>
      </trkpt>
      <trkpt lat="43.85263" lon="5.88303">
        <ele>317.8530273</ele>
        <time>2010-06-27T08:09:04Z</time>
      </trkpt>
      <trkpt lat="43.85307" lon="5.88363">
        <ele>318.8143311</ele>
        <time>2010-06-27T08:09:11Z</time>
      </trkpt>
      <trkpt lat="43.85348" lon="5.88413">
        <ele>319.7756348</ele>
        <time>2010-06-27T08:09:17Z</time>
      </trkpt>
      <trkpt lat="43.85389" lon="5.88464">
        <ele>319.7756348</ele>
        <time>2010-06-27T08:09:23Z</time>
      </trkpt>
      <trkpt lat="43.85434" lon="5.88521">
        <ele>319.7756348</ele>
        <time>2010-06-27T08:09:30Z</time>
      </trkpt>
      <trkpt lat="43.85465" lon="5.88565">
        <ele>322.1789551</ele>
        <time>2010-06-27T08:09:36Z</time>
      </trkpt>
      <trkpt lat="43.8548" lon="5.8861">
        <ele>323.1403809</ele>
        <time>2010-06-27T08:09:41Z</time>
      </trkpt>
      <trkpt lat="43.85498" lon="5.88645">
        <ele>323.1403809</ele>
        <time>2010-06-27T08:09:45Z</time>
      </trkpt>
      <trkpt lat="43.85542" lon="5.88698">
        <ele>324.5822754</ele>
        <time>2010-06-27T08:09:52Z</time>
      </trkpt>
      <trkpt lat="43.85577" lon="5.88745">
        <ele>324.5822754</ele>
        <time>2010-06-27T08:09:58Z</time>
      </trkpt>
      <trkpt lat="43.85604" lon="5.88787">
        <ele>324.5822754</ele>
        <time>2010-06-27T08:10:03Z</time>
      </trkpt>
      <trkpt lat="43.8564" lon="5.88818">
        <ele>324.5822754</ele>
        <time>2010-06-27T08:10:08Z</time>
      </trkpt>
      <trkpt lat="43.85698" lon="5.88867">
        <ele>323.6209717</ele>
        <time>2010-06-27T08:10:16Z</time>
      </trkpt>
      <trkpt lat="43.85739" lon="5.889">
        <ele>324.5822754</ele>
        <time>2010-06-27T08:10:22Z</time>
      </trkpt>
      <trkpt lat="43.8577" lon="5.88918">
        <ele>325.0629883</ele>
        <time>2010-06-27T08:10:27Z</time>
      </trkpt>
      <trkpt lat="43.85807" lon="5.88932">
        <ele>324.5822754</ele>
        <time>2010-06-27T08:10:33Z</time>
      </trkpt>
      <trkpt lat="43.85846" lon="5.88941">
        <ele>325.5435791</ele>
        <time>2010-06-27T08:10:39Z</time>
      </trkpt>
      <trkpt lat="43.8589" lon="5.88959">
        <ele>325.0629883</ele>
        <time>2010-06-27T08:10:45Z</time>
      </trkpt>
      <trkpt lat="43.85932" lon="5.88992">
        <ele>325.5435791</ele>
        <time>2010-06-27T08:10:51Z</time>
      </trkpt>
      <trkpt lat="43.85972" lon="5.89035">
        <ele>325.5435791</ele>
        <time>2010-06-27T08:10:57Z</time>
      </trkpt>
      <trkpt lat="43.86012" lon="5.8908">
        <ele>326.0241699</ele>
        <time>2010-06-27T08:11:03Z</time>
      </trkpt>
      <trkpt lat="43.86052" lon="5.89122">
        <ele>327.4661865</ele>
        <time>2010-06-27T08:11:09Z</time>
      </trkpt>
      <trkpt lat="43.86098" lon="5.89167">
        <ele>329.8695068</ele>
        <time>2010-06-27T08:11:16Z</time>
      </trkpt>
      <trkpt lat="43.86149" lon="5.89212">
        <ele>329.8695068</ele>
        <time>2010-06-27T08:11:23Z</time>
      </trkpt>
      <trkpt lat="43.86193" lon="5.89254">
        <ele>328.9083252</ele>
        <time>2010-06-27T08:11:29Z</time>
      </trkpt>
      <trkpt lat="43.86256" lon="5.8932">
        <ele>328.4276123</ele>
        <time>2010-06-27T08:11:38Z</time>
      </trkpt>
      <trkpt lat="43.86312" lon="5.89375">
        <ele>328.9083252</ele>
        <time>2010-06-27T08:11:46Z</time>
      </trkpt>
      <trkpt lat="43.86356" lon="5.89409">
        <ele>328.9083252</ele>
        <time>2010-06-27T08:11:52Z</time>
      </trkpt>
      <trkpt lat="43.86404" lon="5.8945">
        <ele>329.388916</ele>
        <time>2010-06-27T08:11:59Z</time>
      </trkpt>
      <trkpt lat="43.86442" lon="5.895">
        <ele>330.8309326</ele>
        <time>2010-06-27T08:12:06Z</time>
      </trkpt>
      <trkpt lat="43.8649" lon="5.89561">
        <ele>331.3115234</ele>
        <time>2010-06-27T08:12:14Z</time>
      </trkpt>
      <trkpt lat="43.86549" lon="5.89625">
        <ele>331.7921143</ele>
        <time>2010-06-27T08:12:23Z</time>
      </trkpt>
      <trkpt lat="43.86582" lon="5.89659">
        <ele>333.2341309</ele>
        <time>2010-06-27T08:12:28Z</time>
      </trkpt>
      <trkpt lat="43.86633" lon="5.89714">
        <ele>333.7147217</ele>
        <time>2010-06-27T08:12:36Z</time>
      </trkpt>
      <trkpt lat="43.86685" lon="5.89768">
        <ele>335.1567383</ele>
        <time>2010-06-27T08:12:44Z</time>
      </trkpt>
      <trkpt lat="43.86737" lon="5.89824">
        <ele>336.598877</ele>
        <time>2010-06-27T08:12:52Z</time>
      </trkpt>
      <trkpt lat="43.86782" lon="5.89872">
        <ele>336.598877</ele>
        <time>2010-06-27T08:12:59Z</time>
      </trkpt>
      <trkpt lat="43.86847" lon="5.8994">
        <ele>336.598877</ele>
        <time>2010-06-27T08:13:09Z</time>
      </trkpt>
      <trkpt lat="43.86895" lon="5.89991">
        <ele>336.1181641</ele>
        <time>2010-06-27T08:13:16Z</time>
      </trkpt>
      <trkpt lat="43.86933" lon="5.90029">
        <ele>335.6373291</ele>
        <time>2010-06-27T08:13:21Z</time>
      </trkpt>
      <trkpt lat="43.86969" lon="5.90053">
        <ele>334.6761475</ele>
        <time>2010-06-27T08:13:25Z</time>
      </trkpt>
      <trkpt lat="43.87035" lon="5.90091">
        <ele>332.75354</ele>
        <time>2010-06-27T08:13:32Z</time>
      </trkpt>
      <trkpt lat="43.87095" lon="5.90126">
        <ele>332.2728271</ele>
        <time>2010-06-27T08:13:39Z</time>
      </trkpt>
      <trkpt lat="43.87158" lon="5.90165">
        <ele>332.75354</ele>
        <time>2010-06-27T08:13:47Z</time>
      </trkpt>
      <trkpt lat="43.87173" lon="5.90178">
        <ele>333.2341309</ele>
        <time>2010-06-27T08:13:49Z</time>
      </trkpt>
      <trkpt lat="43.87218" lon="5.90214">
        <ele>334.1954346</ele>
        <time>2010-06-27T08:13:55Z</time>
      </trkpt>
      <trkpt lat="43.87262" lon="5.90254">
        <ele>333.7147217</ele>
        <time>2010-06-27T08:14:01Z</time>
      </trkpt>
      <trkpt lat="43.87321" lon="5.90314">
        <ele>332.75354</ele>
        <time>2010-06-27T08:14:09Z</time>
      </trkpt>
      <trkpt lat="43.87385" lon="5.90384">
        <ele>332.2728271</ele>
        <time>2010-06-27T08:14:18Z</time>
      </trkpt>
      <trkpt lat="43.87433" lon="5.90443">
        <ele>331.7921143</ele>
        <time>2010-06-27T08:14:25Z</time>
      </trkpt>
      <trkpt lat="43.87499" lon="5.90545">
        <ele>333.2341309</ele>
        <time>2010-06-27T08:14:36Z</time>
      </trkpt>
      <trkpt lat="43.87569" lon="5.90656">
        <ele>334.6761475</ele>
        <time>2010-06-27T08:14:48Z</time>
      </trkpt>
      <trkpt lat="43.87613" lon="5.90727">
        <ele>335.6373291</ele>
        <time>2010-06-27T08:14:56Z</time>
      </trkpt>
      <trkpt lat="43.87669" lon="5.90817">
        <ele>336.598877</ele>
        <time>2010-06-27T08:15:06Z</time>
      </trkpt>
      <trkpt lat="43.87712" lon="5.90886">
        <ele>338.0407715</ele>
        <time>2010-06-27T08:15:14Z</time>
      </trkpt>
      <trkpt lat="43.87718" lon="5.90914">
        <ele>339.0020752</ele>
        <time>2010-06-27T08:15:17Z</time>
      </trkpt>
      <trkpt lat="43.87707" lon="5.90939">
        <ele>339.0020752</ele>
        <time>2010-06-27T08:15:20Z</time>
      </trkpt>
      <trkpt lat="43.87667" lon="5.91016">
        <ele>340.4440918</ele>
        <time>2010-06-27T08:15:29Z</time>
      </trkpt>
      <trkpt lat="43.8764" lon="5.91066">
        <ele>342.3666992</ele>
        <time>2010-06-27T08:15:35Z</time>
      </trkpt>
      <trkpt lat="43.87611" lon="5.9109">
        <ele>342.84729</ele>
        <time>2010-06-27T08:15:40Z</time>
      </trkpt>
      <trkpt lat="43.8759" lon="5.91086">
        <ele>341.8859863</ele>
        <time>2010-06-27T08:15:43Z</time>
      </trkpt>
      <trkpt lat="43.87584" lon="5.91083">
        <ele>341.8859863</ele>
        <time>2010-06-27T08:15:44Z</time>
      </trkpt>
      <trkpt lat="43.87545" lon="5.91056">
        <ele>343.3278809</ele>
        <time>2010-06-27T08:15:50Z</time>
      </trkpt>
      <trkpt lat="43.87506" lon="5.91026">
        <ele>342.84729</ele>
        <time>2010-06-27T08:15:57Z</time>
      </trkpt>
      <trkpt lat="43.87464" lon="5.90994">
        <ele>345.2506104</ele>
        <time>2010-06-27T08:16:05Z</time>
      </trkpt>
      <trkpt lat="43.87429" lon="5.90964">
        <ele>348.1346436</ele>
        <time>2010-06-27T08:16:12Z</time>
      </trkpt>
      <trkpt lat="43.87395" lon="5.90933">
        <ele>349.5765381</ele>
        <time>2010-06-27T08:16:19Z</time>
      </trkpt>
      <trkpt lat="43.87356" lon="5.90905">
        <ele>351.4991455</ele>
        <time>2010-06-27T08:16:27Z</time>
      </trkpt>
      <trkpt lat="43.87318" lon="5.90877">
        <ele>353.421875</ele>
        <time>2010-06-27T08:16:35Z</time>
      </trkpt>
      <trkpt lat="43.87296" lon="5.90857">
        <ele>355.3444824</ele>
        <time>2010-06-27T08:16:40Z</time>
      </trkpt>
      <trkpt lat="43.87251" lon="5.90818">
        <ele>358.2283936</ele>
        <time>2010-06-27T08:16:50Z</time>
      </trkpt>
      <trkpt lat="43.87211" lon="5.90792">
        <ele>360.151123</ele>
        <time>2010-06-27T08:16:59Z</time>
      </trkpt>
      <trkpt lat="43.8718" lon="5.90775">
        <ele>362.0737305</ele>
        <time>2010-06-27T08:17:06Z</time>
      </trkpt>
      <trkpt lat="43.87151" lon="5.90756">
        <ele>362.5543213</ele>
        <time>2010-06-27T08:17:13Z</time>
      </trkpt>
      <trkpt lat="43.87116" lon="5.90729">
        <ele>364.9576416</ele>
        <time>2010-06-27T08:17:22Z</time>
      </trkpt>
      <trkpt lat="43.87081" lon="5.90702">
        <ele>366.3995361</ele>
        <time>2010-06-27T08:17:31Z</time>
      </trkpt>
      <trkpt lat="43.87061" lon="5.90699">
        <ele>367.3609619</ele>
        <time>2010-06-27T08:17:36Z</time>
      </trkpt>
      <trkpt lat="43.87054" lon="5.90713">
        <ele>368.8029785</ele>
        <time>2010-06-27T08:17:39Z</time>
      </trkpt>
      <trkpt lat="43.87053" lon="5.90726">
        <ele>369.7642822</ele>
        <time>2010-06-27T08:17:41Z</time>
      </trkpt>
      <trkpt lat="43.87054" lon="5.90752">
        <ele>371.2062988</ele>
        <time>2010-06-27T08:17:45Z</time>
      </trkpt>
      <trkpt lat="43.87066" lon="5.90782">
        <ele>373.1289063</ele>
        <time>2010-06-27T08:17:50Z</time>
      </trkpt>
      <trkpt lat="43.87096" lon="5.90825">
        <ele>376.4935303</ele>
        <time>2010-06-27T08:17:59Z</time>
      </trkpt>
      <trkpt lat="43.87111" lon="5.9085">
        <ele>378.4161377</ele>
        <time>2010-06-27T08:18:04Z</time>
      </trkpt>
      <trkpt lat="43.87125" lon="5.90897">
        <ele>382.2613525</ele>
        <time>2010-06-27T08:18:12Z</time>
      </trkpt>
      <trkpt lat="43.87128" lon="5.90916">
        <ele>383.7032471</ele>
        <time>2010-06-27T08:18:15Z</time>
      </trkpt>
      <trkpt lat="43.87124" lon="5.9096">
        <ele>386.5874023</ele>
        <time>2010-06-27T08:18:22Z</time>
      </trkpt>
      <trkpt lat="43.87117" lon="5.90997">
        <ele>388.5100098</ele>
        <time>2010-06-27T08:18:28Z</time>
      </trkpt>
      <trkpt lat="43.87103" lon="5.91044">
        <ele>390.4326172</ele>
        <time>2010-06-27T08:18:36Z</time>
      </trkpt>
      <trkpt lat="43.8709" lon="5.9109">
        <ele>391.3937988</ele>
        <time>2010-06-27T08:18:44Z</time>
      </trkpt>
      <trkpt lat="43.8708" lon="5.91136">
        <ele>393.3165283</ele>
        <time>2010-06-27T08:18:51Z</time>
      </trkpt>
      <trkpt lat="43.87072" lon="5.91188">
        <ele>395.2391357</ele>
        <time>2010-06-27T08:18:59Z</time>
      </trkpt>
      <trkpt lat="43.87066" lon="5.91227">
        <ele>396.6811523</ele>
        <time>2010-06-27T08:19:05Z</time>
      </trkpt>
      <trkpt lat="43.87058" lon="5.91279">
        <ele>398.6037598</ele>
        <time>2010-06-27T08:19:13Z</time>
      </trkpt>
      <trkpt lat="43.87055" lon="5.91319">
        <ele>400.0458984</ele>
        <time>2010-06-27T08:19:19Z</time>
      </trkpt>
      <trkpt lat="43.87054" lon="5.91366">
        <ele>401.487793</ele>
        <time>2010-06-27T08:19:26Z</time>
      </trkpt>
      <trkpt lat="43.8705" lon="5.91422">
        <ele>404.8522949</ele>
        <time>2010-06-27T08:19:34Z</time>
      </trkpt>
      <trkpt lat="43.8705" lon="5.91456">
        <ele>405.3330078</ele>
        <time>2010-06-27T08:19:39Z</time>
      </trkpt>
      <trkpt lat="43.87059" lon="5.91516">
        <ele>407.2556152</ele>
        <time>2010-06-27T08:19:48Z</time>
      </trkpt>
      <trkpt lat="43.87074" lon="5.91573">
        <ele>409.6590576</ele>
        <time>2010-06-27T08:19:57Z</time>
      </trkpt>
      <trkpt lat="43.87086" lon="5.91627">
        <ele>412.0622559</ele>
        <time>2010-06-27T08:20:06Z</time>
      </trkpt>
      <trkpt lat="43.87092" lon="5.91665">
        <ele>413.9848633</ele>
        <time>2010-06-27T08:20:12Z</time>
      </trkpt>
      <trkpt lat="43.87093" lon="5.9171">
        <ele>417.3496094</ele>
        <time>2010-06-27T08:20:19Z</time>
      </trkpt>
      <trkpt lat="43.87086" lon="5.91755">
        <ele>419.2722168</ele>
        <time>2010-06-27T08:20:26Z</time>
      </trkpt>
      <trkpt lat="43.87082" lon="5.91772">
        <ele>419.7528076</ele>
        <time>2010-06-27T08:20:29Z</time>
      </trkpt>
      <trkpt lat="43.87078" lon="5.91783">
        <ele>419.7528076</ele>
        <time>2010-06-27T08:20:31Z</time>
      </trkpt>
      <trkpt lat="43.87063" lon="5.91808">
        <ele>421.675415</ele>
        <time>2010-06-27T08:20:36Z</time>
      </trkpt>
      <trkpt lat="43.87046" lon="5.91826">
        <ele>423.1174316</ele>
        <time>2010-06-27T08:20:41Z</time>
      </trkpt>
      <trkpt lat="43.87008" lon="5.91862">
        <ele>423.5980225</ele>
        <time>2010-06-27T08:20:51Z</time>
      </trkpt>
      <trkpt lat="43.86986" lon="5.91894">
        <ele>426.0013428</ele>
        <time>2010-06-27T08:20:58Z</time>
      </trkpt>
      <trkpt lat="43.86959" lon="5.91939">
        <ele>427.9239502</ele>
        <time>2010-06-27T08:21:07Z</time>
      </trkpt>
      <trkpt lat="43.86951" lon="5.91955">
        <ele>428.4046631</ele>
        <time>2010-06-27T08:21:10Z</time>
      </trkpt>
      <trkpt lat="43.86929" lon="5.91991">
        <ele>430.8079834</ele>
        <time>2010-06-27T08:21:17Z</time>
      </trkpt>
      <trkpt lat="43.86912" lon="5.9203">
        <ele>433.2113037</ele>
        <time>2010-06-27T08:21:24Z</time>
      </trkpt>
      <trkpt lat="43.86896" lon="5.92079">
        <ele>437.0565186</ele>
        <time>2010-06-27T08:21:32Z</time>
      </trkpt>
      <trkpt lat="43.86882" lon="5.92127">
        <ele>438.4985352</ele>
        <time>2010-06-27T08:21:40Z</time>
      </trkpt>
      <trkpt lat="43.8688" lon="5.92167">
        <ele>440.4212646</ele>
        <time>2010-06-27T08:21:46Z</time>
      </trkpt>
      <trkpt lat="43.8688" lon="5.9222">
        <ele>442.8244629</ele>
        <time>2010-06-27T08:21:54Z</time>
      </trkpt>
      <trkpt lat="43.86882" lon="5.92273">
        <ele>444.2664795</ele>
        <time>2010-06-27T08:22:02Z</time>
      </trkpt>
      <trkpt lat="43.86889" lon="5.92324">
        <ele>446.6696777</ele>
        <time>2010-06-27T08:22:10Z</time>
      </trkpt>
      <trkpt lat="43.86901" lon="5.92365">
        <ele>448.5924072</ele>
        <time>2010-06-27T08:22:17Z</time>
      </trkpt>
      <trkpt lat="43.86913" lon="5.92404">
        <ele>449.5537109</ele>
        <time>2010-06-27T08:22:24Z</time>
      </trkpt>
      <trkpt lat="43.86915" lon="5.9241">
        <ele>450.0344238</ele>
        <time>2010-06-27T08:22:25Z</time>
      </trkpt>
      <trkpt lat="43.86923" lon="5.92444">
        <ele>451.4763184</ele>
        <time>2010-06-27T08:22:31Z</time>
      </trkpt>
      <trkpt lat="43.86919" lon="5.92485">
        <ele>453.8796387</ele>
        <time>2010-06-27T08:22:38Z</time>
      </trkpt>
      <trkpt lat="43.86918" lon="5.9249">
        <ele>453.8796387</ele>
        <time>2010-06-27T08:22:39Z</time>
      </trkpt>
      <trkpt lat="43.86915" lon="5.925">
        <ele>454.3602295</ele>
        <time>2010-06-27T08:22:41Z</time>
      </trkpt>
      <trkpt lat="43.86894" lon="5.92545">
        <ele>456.7635498</ele>
        <time>2010-06-27T08:22:50Z</time>
      </trkpt>
      <trkpt lat="43.86877" lon="5.9259">
        <ele>459.647583</ele>
        <time>2010-06-27T08:22:58Z</time>
      </trkpt>
      <trkpt lat="43.8686" lon="5.92639">
        <ele>462.5313721</ele>
        <time>2010-06-27T08:23:07Z</time>
      </trkpt>
      <trkpt lat="43.86855" lon="5.92686">
        <ele>464.9348145</ele>
        <time>2010-06-27T08:23:15Z</time>
      </trkpt>
      <trkpt lat="43.86852" lon="5.92737">
        <ele>467.8187256</ele>
        <time>2010-06-27T08:23:24Z</time>
      </trkpt>
      <trkpt lat="43.86848" lon="5.92777">
        <ele>469.741333</ele>
        <time>2010-06-27T08:23:31Z</time>
      </trkpt>
      <trkpt lat="43.86852" lon="5.92823">
        <ele>471.6639404</ele>
        <time>2010-06-27T08:23:39Z</time>
      </trkpt>
      <trkpt lat="43.86862" lon="5.92877">
        <ele>473.1060791</ele>
        <time>2010-06-27T08:23:49Z</time>
      </trkpt>
      <trkpt lat="43.8688" lon="5.92914">
        <ele>473.5866699</ele>
        <time>2010-06-27T08:23:57Z</time>
      </trkpt>
      <trkpt lat="43.869" lon="5.9294">
        <ele>475.0286865</ele>
        <time>2010-06-27T08:24:03Z</time>
      </trkpt>
      <trkpt lat="43.86926" lon="5.92966">
        <ele>476.4705811</ele>
        <time>2010-06-27T08:24:10Z</time>
      </trkpt>
      <trkpt lat="43.86958" lon="5.9299">
        <ele>477.9124756</ele>
        <time>2010-06-27T08:24:18Z</time>
      </trkpt>
      <trkpt lat="43.86977" lon="5.93002">
        <ele>478.8739014</ele>
        <time>2010-06-27T08:24:23Z</time>
      </trkpt>
      <trkpt lat="43.87013" lon="5.9301">
        <ele>480.315918</ele>
        <time>2010-06-27T08:24:31Z</time>
      </trkpt>
      <trkpt lat="43.87034" lon="5.93019">
        <ele>481.2772217</ele>
        <time>2010-06-27T08:24:36Z</time>
      </trkpt>
      <trkpt lat="43.87075" lon="5.93051">
        <ele>485.1224365</ele>
        <time>2010-06-27T08:24:47Z</time>
      </trkpt>
      <trkpt lat="43.87096" lon="5.93077">
        <ele>487.5256348</ele>
        <time>2010-06-27T08:24:54Z</time>
      </trkpt>
      <trkpt lat="43.87101" lon="5.93086">
        <ele>488.0064697</ele>
        <time>2010-06-27T08:24:56Z</time>
      </trkpt>
      <trkpt lat="43.87114" lon="5.93126">
        <ele>490.40979</ele>
        <time>2010-06-27T08:25:04Z</time>
      </trkpt>
      <trkpt lat="43.87119" lon="5.93167">
        <ele>492.8129883</ele>
        <time>2010-06-27T08:25:11Z</time>
      </trkpt>
      <trkpt lat="43.87129" lon="5.93212">
        <ele>496.1777344</ele>
        <time>2010-06-27T08:25:18Z</time>
      </trkpt>
      <trkpt lat="43.87148" lon="5.93276">
        <ele>499.5422363</ele>
        <time>2010-06-27T08:25:29Z</time>
      </trkpt>
      <trkpt lat="43.87165" lon="5.93305">
        <ele>500.50354</ele>
        <time>2010-06-27T08:25:35Z</time>
      </trkpt>
      <trkpt lat="43.87198" lon="5.9334">
        <ele>501.4648438</ele>
        <time>2010-06-27T08:25:45Z</time>
      </trkpt>
      <trkpt lat="43.87227" lon="5.93368">
        <ele>502.9067383</ele>
        <time>2010-06-27T08:25:53Z</time>
      </trkpt>
      <trkpt lat="43.87244" lon="5.93387">
        <ele>504.348877</ele>
        <time>2010-06-27T08:25:58Z</time>
      </trkpt>
      <trkpt lat="43.87262" lon="5.93415">
        <ele>505.3101807</ele>
        <time>2010-06-27T08:26:04Z</time>
      </trkpt>
      <trkpt lat="43.8727" lon="5.93439">
        <ele>507.2327881</ele>
        <time>2010-06-27T08:26:08Z</time>
      </trkpt>
      <trkpt lat="43.87272" lon="5.93476">
        <ele>510.1166992</ele>
        <time>2010-06-27T08:26:14Z</time>
      </trkpt>
      <trkpt lat="43.87261" lon="5.9352">
        <ele>513.4814453</ele>
        <time>2010-06-27T08:26:22Z</time>
      </trkpt>
      <trkpt lat="43.87246" lon="5.93567">
        <ele>515.8846436</ele>
        <time>2010-06-27T08:26:31Z</time>
      </trkpt>
      <trkpt lat="43.87243" lon="5.93579">
        <ele>516.3652344</ele>
        <time>2010-06-27T08:26:33Z</time>
      </trkpt>
      <trkpt lat="43.8724" lon="5.93591">
        <ele>517.3266602</ele>
        <time>2010-06-27T08:26:35Z</time>
      </trkpt>
      <trkpt lat="43.87239" lon="5.93603">
        <ele>517.807251</ele>
        <time>2010-06-27T08:26:37Z</time>
      </trkpt>
      <trkpt lat="43.87243" lon="5.93628">
        <ele>518.7685547</ele>
        <time>2010-06-27T08:26:41Z</time>
      </trkpt>
      <trkpt lat="43.8725" lon="5.93652">
        <ele>519.7298584</ele>
        <time>2010-06-27T08:26:45Z</time>
      </trkpt>
      <trkpt lat="43.87259" lon="5.93667">
        <ele>520.2105713</ele>
        <time>2010-06-27T08:26:48Z</time>
      </trkpt>
      <trkpt lat="43.87283" lon="5.93697">
        <ele>521.6525879</ele>
        <time>2010-06-27T08:26:55Z</time>
      </trkpt>
      <trkpt lat="43.87293" lon="5.93717">
        <ele>522.6138916</ele>
        <time>2010-06-27T08:26:59Z</time>
      </trkpt>
      <trkpt lat="43.87297" lon="5.93728">
        <ele>523.0946045</ele>
        <time>2010-06-27T08:27:01Z</time>
      </trkpt>
      <trkpt lat="43.873" lon="5.93751">
        <ele>523.5751953</ele>
        <time>2010-06-27T08:27:05Z</time>
      </trkpt>
      <trkpt lat="43.87307" lon="5.93784">
        <ele>525.0172119</ele>
        <time>2010-06-27T08:27:11Z</time>
      </trkpt>
      <trkpt lat="43.87312" lon="5.93806">
        <ele>526.4591064</ele>
        <time>2010-06-27T08:27:15Z</time>
      </trkpt>
      <trkpt lat="43.87315" lon="5.93822">
        <ele>526.9398193</ele>
        <time>2010-06-27T08:27:18Z</time>
      </trkpt>
      <trkpt lat="43.87322" lon="5.93843">
        <ele>527.901001</ele>
        <time>2010-06-27T08:27:22Z</time>
      </trkpt>
      <trkpt lat="43.87341" lon="5.93866">
        <ele>527.4204102</ele>
        <time>2010-06-27T08:27:28Z</time>
      </trkpt>
      <trkpt lat="43.87368" lon="5.93891">
        <ele>527.901001</ele>
        <time>2010-06-27T08:27:35Z</time>
      </trkpt>
      <trkpt lat="43.87378" lon="5.93918">
        <ele>529.8237305</ele>
        <time>2010-06-27T08:27:40Z</time>
      </trkpt>
      <trkpt lat="43.87379" lon="5.93929">
        <ele>530.3044434</ele>
        <time>2010-06-27T08:27:42Z</time>
      </trkpt>
      <trkpt lat="43.8738" lon="5.9394">
        <ele>530.3044434</ele>
        <time>2010-06-27T08:27:44Z</time>
      </trkpt>
      <trkpt lat="43.87377" lon="5.93962">
        <ele>531.2657471</ele>
        <time>2010-06-27T08:27:48Z</time>
      </trkpt>
      <trkpt lat="43.87363" lon="5.94">
        <ele>534.1496582</ele>
        <time>2010-06-27T08:27:56Z</time>
      </trkpt>
      <trkpt lat="43.87343" lon="5.94025">
        <ele>537.0336914</ele>
        <time>2010-06-27T08:28:03Z</time>
      </trkpt>
      <trkpt lat="43.87327" lon="5.94042">
        <ele>538.9562988</ele>
        <time>2010-06-27T08:28:08Z</time>
      </trkpt>
      <trkpt lat="43.87315" lon="5.94063">
        <ele>539.4368896</ele>
        <time>2010-06-27T08:28:13Z</time>
      </trkpt>
      <trkpt lat="43.87312" lon="5.94099">
        <ele>540.3983154</ele>
        <time>2010-06-27T08:28:19Z</time>
      </trkpt>
      <trkpt lat="43.87323" lon="5.94112">
        <ele>541.3594971</ele>
        <time>2010-06-27T08:28:23Z</time>
      </trkpt>
      <trkpt lat="43.87334" lon="5.94117">
        <ele>542.3209229</ele>
        <time>2010-06-27T08:28:26Z</time>
      </trkpt>
      <trkpt lat="43.87381" lon="5.9413">
        <ele>544.7242432</ele>
        <time>2010-06-27T08:28:37Z</time>
      </trkpt>
      <trkpt lat="43.87404" lon="5.94145">
        <ele>545.6855469</ele>
        <time>2010-06-27T08:28:43Z</time>
      </trkpt>
      <trkpt lat="43.87423" lon="5.94173">
        <ele>544.7242432</ele>
        <time>2010-06-27T08:28:49Z</time>
      </trkpt>
      <trkpt lat="43.87428" lon="5.94186">
        <ele>544.7242432</ele>
        <time>2010-06-27T08:28:51Z</time>
      </trkpt>
      <trkpt lat="43.87434" lon="5.94214">
        <ele>546.6468506</ele>
        <time>2010-06-27T08:28:55Z</time>
      </trkpt>
      <trkpt lat="43.87436" lon="5.94272">
        <ele>548.5693359</ele>
        <time>2010-06-27T08:29:03Z</time>
      </trkpt>
      <trkpt lat="43.87437" lon="5.94307">
        <ele>550.0114746</ele>
        <time>2010-06-27T08:29:08Z</time>
      </trkpt>
      <trkpt lat="43.87441" lon="5.94352">
        <ele>552.4145508</ele>
        <time>2010-06-27T08:29:15Z</time>
      </trkpt>
      <trkpt lat="43.87447" lon="5.94402">
        <ele>554.3374023</ele>
        <time>2010-06-27T08:29:23Z</time>
      </trkpt>
      <trkpt lat="43.87444" lon="5.94443">
        <ele>556.7407227</ele>
        <time>2010-06-27T08:29:30Z</time>
      </trkpt>
      <trkpt lat="43.87434" lon="5.94476">
        <ele>558.1828613</ele>
        <time>2010-06-27T08:29:36Z</time>
      </trkpt>
      <trkpt lat="43.8743" lon="5.94497">
        <ele>559.6247559</ele>
        <time>2010-06-27T08:29:40Z</time>
      </trkpt>
      <trkpt lat="43.87429" lon="5.94508">
        <ele>560.1052246</ele>
        <time>2010-06-27T08:29:42Z</time>
      </trkpt>
      <trkpt lat="43.87434" lon="5.94541">
        <ele>561.5473633</ele>
        <time>2010-06-27T08:29:48Z</time>
      </trkpt>
      <trkpt lat="43.87442" lon="5.9458">
        <ele>562.5085449</ele>
        <time>2010-06-27T08:29:55Z</time>
      </trkpt>
      <trkpt lat="43.87447" lon="5.94618">
        <ele>563.9504395</ele>
        <time>2010-06-27T08:30:02Z</time>
      </trkpt>
      <trkpt lat="43.87451" lon="5.94658">
        <ele>564.9118652</ele>
        <time>2010-06-27T08:30:09Z</time>
      </trkpt>
      <trkpt lat="43.87452" lon="5.94687">
        <ele>568.2763672</ele>
        <time>2010-06-27T08:30:14Z</time>
      </trkpt>
      <trkpt lat="43.87449" lon="5.94723">
        <ele>570.6796875</ele>
        <time>2010-06-27T08:30:21Z</time>
      </trkpt>
      <trkpt lat="43.87446" lon="5.94753">
        <ele>572.6025391</ele>
        <time>2010-06-27T08:30:26Z</time>
      </trkpt>
      <trkpt lat="43.87446" lon="5.94771">
        <ele>574.0444336</ele>
        <time>2010-06-27T08:30:29Z</time>
      </trkpt>
      <trkpt lat="43.87445" lon="5.9479">
        <ele>575.0058594</ele>
        <time>2010-06-27T08:30:32Z</time>
      </trkpt>
      <trkpt lat="43.87442" lon="5.94808">
        <ele>575.4863281</ele>
        <time>2010-06-27T08:30:35Z</time>
      </trkpt>
      <trkpt lat="43.87428" lon="5.94834">
        <ele>577.8896484</ele>
        <time>2010-06-27T08:30:41Z</time>
      </trkpt>
      <trkpt lat="43.87401" lon="5.94855">
        <ele>580.2929688</ele>
        <time>2010-06-27T08:30:49Z</time>
      </trkpt>
      <trkpt lat="43.87362" lon="5.94878">
        <ele>581.7348633</ele>
        <time>2010-06-27T08:30:59Z</time>
      </trkpt>
      <trkpt lat="43.87335" lon="5.949">
        <ele>582.6962891</ele>
        <time>2010-06-27T08:31:06Z</time>
      </trkpt>
      <trkpt lat="43.873" lon="5.94929">
        <ele>583.1767578</ele>
        <time>2010-06-27T08:31:15Z</time>
      </trkpt>
      <trkpt lat="43.87269" lon="5.94945">
        <ele>584.1381836</ele>
        <time>2010-06-27T08:31:22Z</time>
      </trkpt>
      <trkpt lat="43.87256" lon="5.94952">
        <ele>585.0996094</ele>
        <time>2010-06-27T08:31:25Z</time>
      </trkpt>
      <trkpt lat="43.87222" lon="5.94977">
        <ele>585.5800781</ele>
        <time>2010-06-27T08:31:33Z</time>
      </trkpt>
      <trkpt lat="43.87186" lon="5.95014">
        <ele>587.0219727</ele>
        <time>2010-06-27T08:31:41Z</time>
      </trkpt>
      <trkpt lat="43.87172" lon="5.95028">
        <ele>587.5026855</ele>
        <time>2010-06-27T08:31:44Z</time>
      </trkpt>
      <trkpt lat="43.87129" lon="5.95074">
        <ele>589.4255371</ele>
        <time>2010-06-27T08:31:54Z</time>
      </trkpt>
      <trkpt lat="43.87092" lon="5.95113">
        <ele>590.8674316</ele>
        <time>2010-06-27T08:32:02Z</time>
      </trkpt>
      <trkpt lat="43.87054" lon="5.95153">
        <ele>591.3481445</ele>
        <time>2010-06-27T08:32:10Z</time>
      </trkpt>
      <trkpt lat="43.87027" lon="5.95194">
        <ele>590.8674316</ele>
        <time>2010-06-27T08:32:16Z</time>
      </trkpt>
      <trkpt lat="43.87003" lon="5.95239">
        <ele>589.4255371</ele>
        <time>2010-06-27T08:32:21Z</time>
      </trkpt>
      <trkpt lat="43.86964" lon="5.95313">
        <ele>588.4643555</ele>
        <time>2010-06-27T08:32:28Z</time>
      </trkpt>
      <trkpt lat="43.8694" lon="5.95338">
        <ele>587.5026855</ele>
        <time>2010-06-27T08:32:31Z</time>
      </trkpt>
      <trkpt lat="43.8692" lon="5.95337">
        <ele>586.060791</ele>
        <time>2010-06-27T08:32:33Z</time>
      </trkpt>
      <trkpt lat="43.8691" lon="5.95333">
        <ele>585.5800781</ele>
        <time>2010-06-27T08:32:34Z</time>
      </trkpt>
      <trkpt lat="43.86852" lon="5.95304">
        <ele>581.7348633</ele>
        <time>2010-06-27T08:32:40Z</time>
      </trkpt>
      <trkpt lat="43.86809" lon="5.95298">
        <ele>579.8122559</ele>
        <time>2010-06-27T08:32:44Z</time>
      </trkpt>
      <trkpt lat="43.86765" lon="5.95276">
        <ele>576.9284668</ele>
        <time>2010-06-27T08:32:49Z</time>
      </trkpt>
      <trkpt lat="43.86762" lon="5.95263">
        <ele>575.967041</ele>
        <time>2010-06-27T08:32:50Z</time>
      </trkpt>
      <trkpt lat="43.86749" lon="5.95177">
        <ele>571.1604004</ele>
        <time>2010-06-27T08:32:56Z</time>
      </trkpt>
      <trkpt lat="43.86734" lon="5.95141">
        <ele>568.7570801</ele>
        <time>2010-06-27T08:32:59Z</time>
      </trkpt>
      <trkpt lat="43.86714" lon="5.95132">
        <ele>567.7956543</ele>
        <time>2010-06-27T08:33:01Z</time>
      </trkpt>
      <trkpt lat="43.86703" lon="5.95131">
        <ele>567.3151855</ele>
        <time>2010-06-27T08:33:02Z</time>
      </trkpt>
      <trkpt lat="43.8667" lon="5.95125">
        <ele>565.3925781</ele>
        <time>2010-06-27T08:33:05Z</time>
      </trkpt>
      <trkpt lat="43.86634" lon="5.95136">
        <ele>563.4699707</ele>
        <time>2010-06-27T08:33:09Z</time>
      </trkpt>
      <trkpt lat="43.86621" lon="5.95163">
        <ele>562.9892578</ele>
        <time>2010-06-27T08:33:11Z</time>
      </trkpt>
      <trkpt lat="43.8658" lon="5.95205">
        <ele>561.0666504</ele>
        <time>2010-06-27T08:33:16Z</time>
      </trkpt>
      <trkpt lat="43.86547" lon="5.95208">
        <ele>559.144043</ele>
        <time>2010-06-27T08:33:19Z</time>
      </trkpt>
      <trkpt lat="43.86523" lon="5.95233">
        <ele>557.7021484</ele>
        <time>2010-06-27T08:33:22Z</time>
      </trkpt>
      <trkpt lat="43.86502" lon="5.95265">
        <ele>555.7792969</ele>
        <time>2010-06-27T08:33:25Z</time>
      </trkpt>
      <trkpt lat="43.86482" lon="5.95265">
        <ele>554.3374023</ele>
        <time>2010-06-27T08:33:27Z</time>
      </trkpt>
      <trkpt lat="43.86461" lon="5.95259">
        <ele>553.3759766</ele>
        <time>2010-06-27T08:33:29Z</time>
      </trkpt>
      <trkpt lat="43.86424" lon="5.95274">
        <ele>550.9726563</ele>
        <time>2010-06-27T08:33:33Z</time>
      </trkpt>
      <trkpt lat="43.86417" lon="5.95285">
        <ele>550.4921875</ele>
        <time>2010-06-27T08:33:34Z</time>
      </trkpt>
      <trkpt lat="43.86375" lon="5.95341">
        <ele>549.0500488</ele>
        <time>2010-06-27T08:33:39Z</time>
      </trkpt>
      <trkpt lat="43.86367" lon="5.95351">
        <ele>548.0888672</ele>
        <time>2010-06-27T08:33:40Z</time>
      </trkpt>
      <trkpt lat="43.86352" lon="5.95389">
        <ele>545.6855469</ele>
        <time>2010-06-27T08:33:43Z</time>
      </trkpt>
      <trkpt lat="43.86355" lon="5.95418">
        <ele>544.2436523</ele>
        <time>2010-06-27T08:33:45Z</time>
      </trkpt>
      <trkpt lat="43.86374" lon="5.95529">
        <ele>539.9176025</ele>
        <time>2010-06-27T08:33:52Z</time>
      </trkpt>
      <trkpt lat="43.86375" lon="5.95545">
        <ele>539.4368896</ele>
        <time>2010-06-27T08:33:53Z</time>
      </trkpt>
      <trkpt lat="43.86396" lon="5.95585">
        <ele>537.0336914</ele>
        <time>2010-06-27T08:33:57Z</time>
      </trkpt>
      <trkpt lat="43.86416" lon="5.95582">
        <ele>536.5531006</ele>
        <time>2010-06-27T08:33:59Z</time>
      </trkpt>
      <trkpt lat="43.86457" lon="5.95591">
        <ele>535.1109619</ele>
        <time>2010-06-27T08:34:04Z</time>
      </trkpt>
      <trkpt lat="43.86458" lon="5.9561">
        <ele>535.1109619</ele>
        <time>2010-06-27T08:34:06Z</time>
      </trkpt>
      <trkpt lat="43.86451" lon="5.95629">
        <ele>535.1109619</ele>
        <time>2010-06-27T08:34:08Z</time>
      </trkpt>
      <trkpt lat="43.86427" lon="5.95685">
        <ele>535.5915527</ele>
        <time>2010-06-27T08:34:13Z</time>
      </trkpt>
      <trkpt lat="43.86422" lon="5.95738">
        <ele>534.1496582</ele>
        <time>2010-06-27T08:34:17Z</time>
      </trkpt>
      <trkpt lat="43.86437" lon="5.95772">
        <ele>533.1883545</ele>
        <time>2010-06-27T08:34:20Z</time>
      </trkpt>
      <trkpt lat="43.86451" lon="5.9579">
        <ele>533.1883545</ele>
        <time>2010-06-27T08:34:22Z</time>
      </trkpt>
      <trkpt lat="43.86502" lon="5.9585">
        <ele>533.1883545</ele>
        <time>2010-06-27T08:34:29Z</time>
      </trkpt>
      <trkpt lat="43.86525" lon="5.9589">
        <ele>533.6689453</ele>
        <time>2010-06-27T08:34:33Z</time>
      </trkpt>
      <trkpt lat="43.86529" lon="5.95922">
        <ele>533.6689453</ele>
        <time>2010-06-27T08:34:36Z</time>
      </trkpt>
      <trkpt lat="43.86519" lon="5.95937">
        <ele>533.6689453</ele>
        <time>2010-06-27T08:34:38Z</time>
      </trkpt>
      <trkpt lat="43.86497" lon="5.95946">
        <ele>533.1883545</ele>
        <time>2010-06-27T08:34:41Z</time>
      </trkpt>
      <trkpt lat="43.86475" lon="5.95939">
        <ele>532.7077637</ele>
        <time>2010-06-27T08:34:44Z</time>
      </trkpt>
      <trkpt lat="43.86429" lon="5.95897">
        <ele>531.7463379</ele>
        <time>2010-06-27T08:34:52Z</time>
      </trkpt>
      <trkpt lat="43.86391" lon="5.95863">
        <ele>532.2270508</ele>
        <time>2010-06-27T08:34:59Z</time>
      </trkpt>
      <trkpt lat="43.86363" lon="5.95831">
        <ele>535.5915527</ele>
        <time>2010-06-27T08:35:05Z</time>
      </trkpt>
      <trkpt lat="43.8632" lon="5.95794">
        <ele>537.5142822</ele>
        <time>2010-06-27T08:35:14Z</time>
      </trkpt>
      <trkpt lat="43.86301" lon="5.95781">
        <ele>539.4368896</ele>
        <time>2010-06-27T08:35:18Z</time>
      </trkpt>
      <trkpt lat="43.86276" lon="5.95779">
        <ele>540.8789063</ele>
        <time>2010-06-27T08:35:23Z</time>
      </trkpt>
      <trkpt lat="43.86267" lon="5.95784">
        <ele>541.84021</ele>
        <time>2010-06-27T08:35:25Z</time>
      </trkpt>
      <trkpt lat="43.86233" lon="5.95807">
        <ele>544.7242432</ele>
        <time>2010-06-27T08:35:33Z</time>
      </trkpt>
      <trkpt lat="43.86212" lon="5.95807">
        <ele>546.1662598</ele>
        <time>2010-06-27T08:35:38Z</time>
      </trkpt>
      <trkpt lat="43.86206" lon="5.95799">
        <ele>546.1662598</ele>
        <time>2010-06-27T08:35:40Z</time>
      </trkpt>
      <trkpt lat="43.8621" lon="5.95773">
        <ele>544.7242432</ele>
        <time>2010-06-27T08:35:45Z</time>
      </trkpt>
      <trkpt lat="43.86216" lon="5.95765">
        <ele>543.2821045</ele>
        <time>2010-06-27T08:35:47Z</time>
      </trkpt>
      <trkpt lat="43.8622" lon="5.9574">
        <ele>541.3594971</ele>
        <time>2010-06-27T08:35:52Z</time>
      </trkpt>
      <trkpt lat="43.86209" lon="5.95717">
        <ele>540.8789063</ele>
        <time>2010-06-27T08:35:57Z</time>
      </trkpt>
      <trkpt lat="43.86201" lon="5.95705">
        <ele>543.7628174</ele>
        <time>2010-06-27T08:36:00Z</time>
      </trkpt>
      <trkpt lat="43.86185" lon="5.95687">
        <ele>546.1662598</ele>
        <time>2010-06-27T08:36:05Z</time>
      </trkpt>
      <trkpt lat="43.86178" lon="5.95682">
        <ele>547.1274414</ele>
        <time>2010-06-27T08:36:07Z</time>
      </trkpt>
      <trkpt lat="43.86147" lon="5.95669">
        <ele>549.5307617</ele>
        <time>2010-06-27T08:36:15Z</time>
      </trkpt>
      <trkpt lat="43.86143" lon="5.95667">
        <ele>550.0114746</ele>
        <time>2010-06-27T08:36:16Z</time>
      </trkpt>
      <trkpt lat="43.86124" lon="5.95648">
        <ele>553.8566895</ele>
        <time>2010-06-27T08:36:22Z</time>
      </trkpt>
      <trkpt lat="43.86109" lon="5.95647">
        <ele>555.298584</ele>
        <time>2010-06-27T08:36:26Z</time>
      </trkpt>
      <trkpt lat="43.86078" lon="5.95668">
        <ele>558.1828613</ele>
        <time>2010-06-27T08:36:35Z</time>
      </trkpt>
      <trkpt lat="43.86048" lon="5.95684">
        <ele>560.1052246</ele>
        <time>2010-06-27T08:36:43Z</time>
      </trkpt>
      <trkpt lat="43.86016" lon="5.95691">
        <ele>562.5085449</ele>
        <time>2010-06-27T08:36:51Z</time>
      </trkpt>
      <trkpt lat="43.86005" lon="5.95696">
        <ele>563.4699707</ele>
        <time>2010-06-27T08:36:54Z</time>
      </trkpt>
      <trkpt lat="43.85979" lon="5.95723">
        <ele>565.3925781</ele>
        <time>2010-06-27T08:37:01Z</time>
      </trkpt>
      <trkpt lat="43.85959" lon="5.9575">
        <ele>565.873291</ele>
        <time>2010-06-27T08:37:07Z</time>
      </trkpt>
      <trkpt lat="43.85926" lon="5.9579">
        <ele>567.7956543</ele>
        <time>2010-06-27T08:37:16Z</time>
      </trkpt>
      <trkpt lat="43.85908" lon="5.95819">
        <ele>568.7570801</ele>
        <time>2010-06-27T08:37:22Z</time>
      </trkpt>
      <trkpt lat="43.85884" lon="5.95863">
        <ele>572.1218262</ele>
        <time>2010-06-27T08:37:30Z</time>
      </trkpt>
      <trkpt lat="43.85875" lon="5.95887">
        <ele>574.0444336</ele>
        <time>2010-06-27T08:37:34Z</time>
      </trkpt>
      <trkpt lat="43.85872" lon="5.959">
        <ele>574.0444336</ele>
        <time>2010-06-27T08:37:36Z</time>
      </trkpt>
      <trkpt lat="43.85858" lon="5.95924">
        <ele>575.0058594</ele>
        <time>2010-06-27T08:37:41Z</time>
      </trkpt>
      <trkpt lat="43.85854" lon="5.95926">
        <ele>575.4863281</ele>
        <time>2010-06-27T08:37:42Z</time>
      </trkpt>
      <trkpt lat="43.85818" lon="5.95944">
        <ele>576.9284668</ele>
        <time>2010-06-27T08:37:51Z</time>
      </trkpt>
      <trkpt lat="43.85785" lon="5.95958">
        <ele>579.331543</ele>
        <time>2010-06-27T08:37:59Z</time>
      </trkpt>
      <trkpt lat="43.85772" lon="5.95965">
        <ele>580.2929688</ele>
        <time>2010-06-27T08:38:02Z</time>
      </trkpt>
      <trkpt lat="43.85747" lon="5.95994">
        <ele>581.7348633</ele>
        <time>2010-06-27T08:38:09Z</time>
      </trkpt>
      <trkpt lat="43.85721" lon="5.96038">
        <ele>582.6962891</ele>
        <time>2010-06-27T08:38:17Z</time>
      </trkpt>
      <trkpt lat="43.857" lon="5.96078">
        <ele>584.6188965</ele>
        <time>2010-06-27T08:38:23Z</time>
      </trkpt>
      <trkpt lat="43.85687" lon="5.96099">
        <ele>587.0219727</ele>
        <time>2010-06-27T08:38:26Z</time>
      </trkpt>
      <trkpt lat="43.85664" lon="5.96134">
        <ele>587.9833984</ele>
        <time>2010-06-27T08:38:32Z</time>
      </trkpt>
      <trkpt lat="43.8564" lon="5.96173">
        <ele>589.4255371</ele>
        <time>2010-06-27T08:38:39Z</time>
      </trkpt>
      <trkpt lat="43.85617" lon="5.9621">
        <ele>589.4255371</ele>
        <time>2010-06-27T08:38:46Z</time>
      </trkpt>
      <trkpt lat="43.85595" lon="5.96246">
        <ele>591.3481445</ele>
        <time>2010-06-27T08:38:52Z</time>
      </trkpt>
      <trkpt lat="43.85564" lon="5.96295">
        <ele>591.8288574</ele>
        <time>2010-06-27T08:39:00Z</time>
      </trkpt>
      <trkpt lat="43.85533" lon="5.96348">
        <ele>592.7902832</ele>
        <time>2010-06-27T08:39:08Z</time>
      </trkpt>
      <trkpt lat="43.85497" lon="5.96407">
        <ele>594.2321777</ele>
        <time>2010-06-27T08:39:17Z</time>
      </trkpt>
      <trkpt lat="43.85459" lon="5.96474">
        <ele>595.6740723</ele>
        <time>2010-06-27T08:39:27Z</time>
      </trkpt>
      <trkpt lat="43.8543" lon="5.96526">
        <ele>597.1159668</ele>
        <time>2010-06-27T08:39:34Z</time>
      </trkpt>
      <trkpt lat="43.85396" lon="5.96582">
        <ele>597.5966797</ele>
        <time>2010-06-27T08:39:41Z</time>
      </trkpt>
      <trkpt lat="43.85361" lon="5.96616">
        <ele>596.1547852</ele>
        <time>2010-06-27T08:39:46Z</time>
      </trkpt>
      <trkpt lat="43.85353" lon="5.96622">
        <ele>595.1933594</ele>
        <time>2010-06-27T08:39:47Z</time>
      </trkpt>
      <trkpt lat="43.85314" lon="5.96626">
        <ele>593.270752</ele>
        <time>2010-06-27T08:39:51Z</time>
      </trkpt>
      <trkpt lat="43.85249" lon="5.96611">
        <ele>588.4643555</ele>
        <time>2010-06-27T08:39:57Z</time>
      </trkpt>
      <trkpt lat="43.85191" lon="5.96607">
        <ele>585.0996094</ele>
        <time>2010-06-27T08:40:02Z</time>
      </trkpt>
      <trkpt lat="43.85145" lon="5.96593">
        <ele>582.2155762</ele>
        <time>2010-06-27T08:40:06Z</time>
      </trkpt>
      <trkpt lat="43.85116" lon="5.96566">
        <ele>579.8122559</ele>
        <time>2010-06-27T08:40:10Z</time>
      </trkpt>
      <trkpt lat="43.85114" lon="5.96544">
        <ele>578.3703613</ele>
        <time>2010-06-27T08:40:12Z</time>
      </trkpt>
      <trkpt lat="43.85118" lon="5.96522">
        <ele>576.9284668</ele>
        <time>2010-06-27T08:40:14Z</time>
      </trkpt>
      <trkpt lat="43.85125" lon="5.96497">
        <ele>575.4863281</ele>
        <time>2010-06-27T08:40:16Z</time>
      </trkpt>
      <trkpt lat="43.85125" lon="5.96442">
        <ele>573.5639648</ele>
        <time>2010-06-27T08:40:20Z</time>
      </trkpt>
      <trkpt lat="43.85123" lon="5.964">
        <ele>572.1218262</ele>
        <time>2010-06-27T08:40:23Z</time>
      </trkpt>
      <trkpt lat="43.85125" lon="5.96374">
        <ele>571.1604004</ele>
        <time>2010-06-27T08:40:25Z</time>
      </trkpt>
      <trkpt lat="43.85119" lon="5.96345">
        <ele>569.7185059</ele>
        <time>2010-06-27T08:40:28Z</time>
      </trkpt>
      <trkpt lat="43.85105" lon="5.96336">
        <ele>568.7570801</ele>
        <time>2010-06-27T08:40:30Z</time>
      </trkpt>
      <trkpt lat="43.85096" lon="5.96335">
        <ele>567.7956543</ele>
        <time>2010-06-27T08:40:31Z</time>
      </trkpt>
      <trkpt lat="43.85079" lon="5.96336">
        <ele>566.8344727</ele>
        <time>2010-06-27T08:40:33Z</time>
      </trkpt>
      <trkpt lat="43.85047" lon="5.96357">
        <ele>565.3925781</ele>
        <time>2010-06-27T08:40:37Z</time>
      </trkpt>
      <trkpt lat="43.85039" lon="5.9638">
        <ele>565.873291</ele>
        <time>2010-06-27T08:40:39Z</time>
      </trkpt>
      <trkpt lat="43.85022" lon="5.9644">
        <ele>569.7185059</ele>
        <time>2010-06-27T08:40:45Z</time>
      </trkpt>
      <trkpt lat="43.84999" lon="5.96503">
        <ele>573.5639648</ele>
        <time>2010-06-27T08:40:53Z</time>
      </trkpt>
      <trkpt lat="43.8499" lon="5.96533">
        <ele>575.0058594</ele>
        <time>2010-06-27T08:40:57Z</time>
      </trkpt>
      <trkpt lat="43.84984" lon="5.96597">
        <ele>578.8510742</ele>
        <time>2010-06-27T08:41:05Z</time>
      </trkpt>
      <trkpt lat="43.84983" lon="5.96648">
        <ele>580.7736816</ele>
        <time>2010-06-27T08:41:12Z</time>
      </trkpt>
      <trkpt lat="43.84981" lon="5.96662">
        <ele>580.7736816</ele>
        <time>2010-06-27T08:41:14Z</time>
      </trkpt>
      <trkpt lat="43.84976" lon="5.96692">
        <ele>582.2155762</ele>
        <time>2010-06-27T08:41:19Z</time>
      </trkpt>
      <trkpt lat="43.84978" lon="5.96721">
        <ele>582.6962891</ele>
        <time>2010-06-27T08:41:24Z</time>
      </trkpt>
      <trkpt lat="43.8498" lon="5.96726">
        <ele>583.1767578</ele>
        <time>2010-06-27T08:41:25Z</time>
      </trkpt>
      <trkpt lat="43.84995" lon="5.9675">
        <ele>584.1381836</ele>
        <time>2010-06-27T08:41:30Z</time>
      </trkpt>
      <trkpt lat="43.85003" lon="5.96778">
        <ele>584.6188965</ele>
        <time>2010-06-27T08:41:35Z</time>
      </trkpt>
      <trkpt lat="43.85003" lon="5.96784">
        <ele>585.0996094</ele>
        <time>2010-06-27T08:41:36Z</time>
      </trkpt>
      <trkpt lat="43.85001" lon="5.96796">
        <ele>586.060791</ele>
        <time>2010-06-27T08:41:38Z</time>
      </trkpt>
      <trkpt lat="43.8499" lon="5.96861">
        <ele>589.90625</ele>
        <time>2010-06-27T08:41:48Z</time>
      </trkpt>
      <trkpt lat="43.84981" lon="5.96905">
        <ele>592.3095703</ele>
        <time>2010-06-27T08:41:55Z</time>
      </trkpt>
      <trkpt lat="43.84967" lon="5.96931">
        <ele>593.270752</ele>
        <time>2010-06-27T08:42:00Z</time>
      </trkpt>
      <trkpt lat="43.84937" lon="5.9696">
        <ele>593.7514648</ele>
        <time>2010-06-27T08:42:07Z</time>
      </trkpt>
      <trkpt lat="43.84932" lon="5.96963">
        <ele>593.7514648</ele>
        <time>2010-06-27T08:42:08Z</time>
      </trkpt>
      <trkpt lat="43.84882" lon="5.97015">
        <ele>594.7126465</ele>
        <time>2010-06-27T08:42:19Z</time>
      </trkpt>
      <trkpt lat="43.84878" lon="5.97022">
        <ele>594.7126465</ele>
        <time>2010-06-27T08:42:20Z</time>
      </trkpt>
      <trkpt lat="43.84859" lon="5.97065">
        <ele>594.7126465</ele>
        <time>2010-06-27T08:42:26Z</time>
      </trkpt>
      <trkpt lat="43.84827" lon="5.97151">
        <ele>595.6740723</ele>
        <time>2010-06-27T08:42:36Z</time>
      </trkpt>
      <trkpt lat="43.84799" lon="5.97201">
        <ele>596.1547852</ele>
        <time>2010-06-27T08:42:42Z</time>
      </trkpt>
      <trkpt lat="43.84751" lon="5.97268">
        <ele>596.1547852</ele>
        <time>2010-06-27T08:42:51Z</time>
      </trkpt>
      <trkpt lat="43.84723" lon="5.97326">
        <ele>596.635498</ele>
        <time>2010-06-27T08:42:58Z</time>
      </trkpt>
      <trkpt lat="43.847" lon="5.97371">
        <ele>597.5966797</ele>
        <time>2010-06-27T08:43:03Z</time>
      </trkpt>
      <trkpt lat="43.84662" lon="5.97424">
        <ele>598.0773926</ele>
        <time>2010-06-27T08:43:10Z</time>
      </trkpt>
      <trkpt lat="43.84642" lon="5.97431">
        <ele>597.5966797</ele>
        <time>2010-06-27T08:43:13Z</time>
      </trkpt>
      <trkpt lat="43.84626" lon="5.97411">
        <ele>596.635498</ele>
        <time>2010-06-27T08:43:16Z</time>
      </trkpt>
      <trkpt lat="43.84597" lon="5.97344">
        <ele>595.1933594</ele>
        <time>2010-06-27T08:43:23Z</time>
      </trkpt>
      <trkpt lat="43.84565" lon="5.97273">
        <ele>595.6740723</ele>
        <time>2010-06-27T08:43:30Z</time>
      </trkpt>
      <trkpt lat="43.84526" lon="5.97187">
        <ele>595.1933594</ele>
        <time>2010-06-27T08:43:38Z</time>
      </trkpt>
      <trkpt lat="43.84484" lon="5.97096">
        <ele>595.1933594</ele>
        <time>2010-06-27T08:43:46Z</time>
      </trkpt>
      <trkpt lat="43.84448" lon="5.97016">
        <ele>594.7126465</ele>
        <time>2010-06-27T08:43:53Z</time>
      </trkpt>
      <trkpt lat="43.84416" lon="5.96951">
        <ele>594.2321777</ele>
        <time>2010-06-27T08:43:59Z</time>
      </trkpt>
      <trkpt lat="43.84362" lon="5.96859">
        <ele>594.2321777</ele>
        <time>2010-06-27T08:44:08Z</time>
      </trkpt>
      <trkpt lat="43.84309" lon="5.96767">
        <ele>594.2321777</ele>
        <time>2010-06-27T08:44:17Z</time>
      </trkpt>
      <trkpt lat="43.84255" lon="5.96671">
        <ele>592.7902832</ele>
        <time>2010-06-27T08:44:26Z</time>
      </trkpt>
      <trkpt lat="43.84224" lon="5.96618">
        <ele>591.3481445</ele>
        <time>2010-06-27T08:44:31Z</time>
      </trkpt>
      <trkpt lat="43.84175" lon="5.96532">
        <ele>590.3869629</ele>
        <time>2010-06-27T08:44:39Z</time>
      </trkpt>
      <trkpt lat="43.84127" lon="5.96463">
        <ele>589.90625</ele>
        <time>2010-06-27T08:44:46Z</time>
      </trkpt>
      <trkpt lat="43.84064" lon="5.96382">
        <ele>587.9833984</ele>
        <time>2010-06-27T08:44:55Z</time>
      </trkpt>
      <trkpt lat="43.84017" lon="5.9632">
        <ele>586.5415039</ele>
        <time>2010-06-27T08:45:02Z</time>
      </trkpt>
      <trkpt lat="43.83971" lon="5.96263">
        <ele>586.060791</ele>
        <time>2010-06-27T08:45:09Z</time>
      </trkpt>
      <trkpt lat="43.83934" lon="5.96234">
        <ele>585.5800781</ele>
        <time>2010-06-27T08:45:14Z</time>
      </trkpt>
      <trkpt lat="43.83892" lon="5.96213">
        <ele>585.0996094</ele>
        <time>2010-06-27T08:45:19Z</time>
      </trkpt>
      <trkpt lat="43.83872" lon="5.9619">
        <ele>584.6188965</ele>
        <time>2010-06-27T08:45:22Z</time>
      </trkpt>
      <trkpt lat="43.83863" lon="5.96168">
        <ele>584.1381836</ele>
        <time>2010-06-27T08:45:24Z</time>
      </trkpt>
      <trkpt lat="43.83851" lon="5.9615">
        <ele>583.6574707</ele>
        <time>2010-06-27T08:45:26Z</time>
      </trkpt>
      <trkpt lat="43.83836" lon="5.96108">
        <ele>583.6574707</ele>
        <time>2010-06-27T08:45:30Z</time>
      </trkpt>
      <trkpt lat="43.83811" lon="5.9602">
        <ele>583.1767578</ele>
        <time>2010-06-27T08:45:38Z</time>
      </trkpt>
      <trkpt lat="43.83773" lon="5.95936">
        <ele>583.1767578</ele>
        <time>2010-06-27T08:45:46Z</time>
      </trkpt>
      <trkpt lat="43.83746" lon="5.95874">
        <ele>583.1767578</ele>
        <time>2010-06-27T08:45:52Z</time>
      </trkpt>
      <trkpt lat="43.83713" lon="5.95816">
        <ele>583.6574707</ele>
        <time>2010-06-27T08:45:58Z</time>
      </trkpt>
      <trkpt lat="43.83673" lon="5.95766">
        <ele>583.1767578</ele>
        <time>2010-06-27T08:46:04Z</time>
      </trkpt>
      <trkpt lat="43.83627" lon="5.95725">
        <ele>582.2155762</ele>
        <time>2010-06-27T08:46:10Z</time>
      </trkpt>
      <trkpt lat="43.83551" lon="5.95669">
        <ele>580.2929688</ele>
        <time>2010-06-27T08:46:19Z</time>
      </trkpt>
      <trkpt lat="43.83485" lon="5.95609">
        <ele>578.8510742</ele>
        <time>2010-06-27T08:46:27Z</time>
      </trkpt>
      <trkpt lat="43.83443" lon="5.95553">
        <ele>578.3703613</ele>
        <time>2010-06-27T08:46:33Z</time>
      </trkpt>
      <trkpt lat="43.83393" lon="5.95475">
        <ele>578.3703613</ele>
        <time>2010-06-27T08:46:41Z</time>
      </trkpt>
      <trkpt lat="43.83344" lon="5.95398">
        <ele>578.8510742</ele>
        <time>2010-06-27T08:46:49Z</time>
      </trkpt>
      <trkpt lat="43.833" lon="5.95329">
        <ele>579.331543</ele>
        <time>2010-06-27T08:46:56Z</time>
      </trkpt>
      <trkpt lat="43.83255" lon="5.95257">
        <ele>578.8510742</ele>
        <time>2010-06-27T08:47:03Z</time>
      </trkpt>
      <trkpt lat="43.83206" lon="5.95176">
        <ele>577.8896484</ele>
        <time>2010-06-27T08:47:11Z</time>
      </trkpt>
      <trkpt lat="43.83165" lon="5.95117">
        <ele>576.9284668</ele>
        <time>2010-06-27T08:47:17Z</time>
      </trkpt>
      <trkpt lat="43.83108" lon="5.95036">
        <ele>574.5251465</ele>
        <time>2010-06-27T08:47:25Z</time>
      </trkpt>
      <trkpt lat="43.83035" lon="5.94932">
        <ele>571.6408691</ele>
        <time>2010-06-27T08:47:35Z</time>
      </trkpt>
      <trkpt lat="43.82998" lon="5.94862">
        <ele>570.6796875</ele>
        <time>2010-06-27T08:47:41Z</time>
      </trkpt>
      <trkpt lat="43.82966" lon="5.94774">
        <ele>569.237793</ele>
        <time>2010-06-27T08:47:48Z</time>
      </trkpt>
      <trkpt lat="43.82936" lon="5.94657">
        <ele>568.2763672</ele>
        <time>2010-06-27T08:47:57Z</time>
      </trkpt>
      <trkpt lat="43.82903" lon="5.94531">
        <ele>567.3151855</ele>
        <time>2010-06-27T08:48:07Z</time>
      </trkpt>
      <trkpt lat="43.8288" lon="5.94461">
        <ele>566.8344727</ele>
        <time>2010-06-27T08:48:13Z</time>
      </trkpt>
      <trkpt lat="43.82856" lon="5.94409">
        <ele>568.2763672</ele>
        <time>2010-06-27T08:48:18Z</time>
      </trkpt>
      <trkpt lat="43.82803" lon="5.94308">
        <ele>568.7570801</ele>
        <time>2010-06-27T08:48:28Z</time>
      </trkpt>
      <trkpt lat="43.82762" lon="5.94259">
        <ele>568.2763672</ele>
        <time>2010-06-27T08:48:34Z</time>
      </trkpt>
      <trkpt lat="43.82705" lon="5.94212">
        <ele>566.8344727</ele>
        <time>2010-06-27T08:48:41Z</time>
      </trkpt>
      <trkpt lat="43.8262" lon="5.94146">
        <ele>565.873291</ele>
        <time>2010-06-27T08:48:51Z</time>
      </trkpt>
      <trkpt lat="43.82547" lon="5.94087">
        <ele>565.873291</ele>
        <time>2010-06-27T08:49:00Z</time>
      </trkpt>
      <trkpt lat="43.82495" lon="5.94033">
        <ele>564.9118652</ele>
        <time>2010-06-27T08:49:07Z</time>
      </trkpt>
      <trkpt lat="43.82426" lon="5.93941">
        <ele>562.9892578</ele>
        <time>2010-06-27T08:49:17Z</time>
      </trkpt>
      <trkpt lat="43.82357" lon="5.93845">
        <ele>560.1052246</ele>
        <time>2010-06-27T08:49:27Z</time>
      </trkpt>
      <trkpt lat="43.8228" lon="5.93744">
        <ele>558.1828613</ele>
        <time>2010-06-27T08:49:38Z</time>
      </trkpt>
      <trkpt lat="43.82214" lon="5.93675">
        <ele>557.2214355</ele>
        <time>2010-06-27T08:49:47Z</time>
      </trkpt>
      <trkpt lat="43.82161" lon="5.93612">
        <ele>556.2600098</ele>
        <time>2010-06-27T08:49:55Z</time>
      </trkpt>
      <trkpt lat="43.82129" lon="5.93555">
        <ele>555.7792969</ele>
        <time>2010-06-27T08:50:01Z</time>
      </trkpt>
      <trkpt lat="43.82106" lon="5.93504">
        <ele>554.8178711</ele>
        <time>2010-06-27T08:50:06Z</time>
      </trkpt>
      <trkpt lat="43.82082" lon="5.93451">
        <ele>554.3374023</ele>
        <time>2010-06-27T08:50:11Z</time>
      </trkpt>
      <trkpt lat="43.82046" lon="5.93392">
        <ele>555.298584</ele>
        <time>2010-06-27T08:50:17Z</time>
      </trkpt>
      <trkpt lat="43.82009" lon="5.93355">
        <ele>554.8178711</ele>
        <time>2010-06-27T08:50:22Z</time>
      </trkpt>
      <trkpt lat="43.81966" lon="5.93333">
        <ele>554.3374023</ele>
        <time>2010-06-27T08:50:27Z</time>
      </trkpt>
      <trkpt lat="43.81898" lon="5.93318">
        <ele>553.3759766</ele>
        <time>2010-06-27T08:50:34Z</time>
      </trkpt>
      <trkpt lat="43.81817" lon="5.93306">
        <ele>551.4533691</ele>
        <time>2010-06-27T08:50:42Z</time>
      </trkpt>
      <trkpt lat="43.81745" lon="5.93289">
        <ele>550.0114746</ele>
        <time>2010-06-27T08:50:49Z</time>
      </trkpt>
      <trkpt lat="43.81653" lon="5.93252">
        <ele>546.6468506</ele>
        <time>2010-06-27T08:50:58Z</time>
      </trkpt>
      <trkpt lat="43.81591" lon="5.93229">
        <ele>545.204834</ele>
        <time>2010-06-27T08:51:04Z</time>
      </trkpt>
      <trkpt lat="43.81518" lon="5.93209">
        <ele>544.7242432</ele>
        <time>2010-06-27T08:51:11Z</time>
      </trkpt>
      <trkpt lat="43.81465" lon="5.9321">
        <ele>543.2821045</ele>
        <time>2010-06-27T08:51:16Z</time>
      </trkpt>
      <trkpt lat="43.81423" lon="5.93203">
        <ele>542.3209229</ele>
        <time>2010-06-27T08:51:20Z</time>
      </trkpt>
      <trkpt lat="43.81385" lon="5.93177">
        <ele>541.3594971</ele>
        <time>2010-06-27T08:51:24Z</time>
      </trkpt>
      <trkpt lat="43.81363" lon="5.93146">
        <ele>540.3983154</ele>
        <time>2010-06-27T08:51:27Z</time>
      </trkpt>
      <trkpt lat="43.81357" lon="5.93133">
        <ele>540.3983154</ele>
        <time>2010-06-27T08:51:28Z</time>
      </trkpt>
      <trkpt lat="43.81307" lon="5.93008">
        <ele>537.9949951</ele>
        <time>2010-06-27T08:51:38Z</time>
      </trkpt>
      <trkpt lat="43.81257" lon="5.92885">
        <ele>534.6303711</ele>
        <time>2010-06-27T08:51:48Z</time>
      </trkpt>
      <trkpt lat="43.81243" lon="5.92847">
        <ele>533.6689453</ele>
        <time>2010-06-27T08:51:51Z</time>
      </trkpt>
      <trkpt lat="43.8123" lon="5.92778">
        <ele>532.2270508</ele>
        <time>2010-06-27T08:51:56Z</time>
      </trkpt>
      <trkpt lat="43.81234" lon="5.92736">
        <ele>531.7463379</ele>
        <time>2010-06-27T08:51:59Z</time>
      </trkpt>
      <trkpt lat="43.81241" lon="5.92709">
        <ele>531.2657471</ele>
        <time>2010-06-27T08:52:01Z</time>
      </trkpt>
      <trkpt lat="43.81283" lon="5.92596">
        <ele>528.3818359</ele>
        <time>2010-06-27T08:52:10Z</time>
      </trkpt>
      <trkpt lat="43.81312" lon="5.92558">
        <ele>526.9398193</ele>
        <time>2010-06-27T08:52:14Z</time>
      </trkpt>
      <trkpt lat="43.81354" lon="5.92517">
        <ele>525.0172119</ele>
        <time>2010-06-27T08:52:19Z</time>
      </trkpt>
      <trkpt lat="43.81385" lon="5.9246">
        <ele>523.5751953</ele>
        <time>2010-06-27T08:52:24Z</time>
      </trkpt>
      <trkpt lat="43.81397" lon="5.92436">
        <ele>523.0946045</ele>
        <time>2010-06-27T08:52:26Z</time>
      </trkpt>
      <trkpt lat="43.81442" lon="5.92378">
        <ele>521.1719971</ele>
        <time>2010-06-27T08:52:32Z</time>
      </trkpt>
      <trkpt lat="43.81498" lon="5.92313">
        <ele>519.2492676</ele>
        <time>2010-06-27T08:52:39Z</time>
      </trkpt>
      <trkpt lat="43.81504" lon="5.92303">
        <ele>519.2492676</ele>
        <time>2010-06-27T08:52:40Z</time>
      </trkpt>
      <trkpt lat="43.8152" lon="5.92251">
        <ele>518.2878418</ele>
        <time>2010-06-27T08:52:44Z</time>
      </trkpt>
      <trkpt lat="43.81519" lon="5.92207">
        <ele>518.2878418</ele>
        <time>2010-06-27T08:52:47Z</time>
      </trkpt>
      <trkpt lat="43.81507" lon="5.92166">
        <ele>518.2878418</ele>
        <time>2010-06-27T08:52:50Z</time>
      </trkpt>
      <trkpt lat="43.81474" lon="5.92105">
        <ele>517.3266602</ele>
        <time>2010-06-27T08:52:55Z</time>
      </trkpt>
      <trkpt lat="43.81428" lon="5.92038">
        <ele>516.8459473</ele>
        <time>2010-06-27T08:53:01Z</time>
      </trkpt>
      <trkpt lat="43.81382" lon="5.91993">
        <ele>515.8846436</ele>
        <time>2010-06-27T08:53:06Z</time>
      </trkpt>
      <trkpt lat="43.81335" lon="5.91953">
        <ele>514.442627</ele>
        <time>2010-06-27T08:53:11Z</time>
      </trkpt>
      <trkpt lat="43.813" lon="5.91897">
        <ele>512.0394287</ele>
        <time>2010-06-27T08:53:16Z</time>
      </trkpt>
      <trkpt lat="43.81293" lon="5.91854">
        <ele>510.59729</ele>
        <time>2010-06-27T08:53:19Z</time>
      </trkpt>
      <trkpt lat="43.81293" lon="5.91839">
        <ele>510.1166992</ele>
        <time>2010-06-27T08:53:20Z</time>
      </trkpt>
      <trkpt lat="43.81298" lon="5.91751">
        <ele>508.6746826</ele>
        <time>2010-06-27T08:53:26Z</time>
      </trkpt>
      <trkpt lat="43.81297" lon="5.91737">
        <ele>509.1553955</ele>
        <time>2010-06-27T08:53:27Z</time>
      </trkpt>
      <trkpt lat="43.81281" lon="5.91667">
        <ele>508.1940918</ele>
        <time>2010-06-27T08:53:32Z</time>
      </trkpt>
      <trkpt lat="43.81265" lon="5.91597">
        <ele>506.7520752</ele>
        <time>2010-06-27T08:53:37Z</time>
      </trkpt>
      <trkpt lat="43.81266" lon="5.91538">
        <ele>504.348877</ele>
        <time>2010-06-27T08:53:41Z</time>
      </trkpt>
      <trkpt lat="43.81269" lon="5.91524">
        <ele>503.8681641</ele>
        <time>2010-06-27T08:53:42Z</time>
      </trkpt>
      <trkpt lat="43.81297" lon="5.91429">
        <ele>499.0615234</ele>
        <time>2010-06-27T08:53:49Z</time>
      </trkpt>
      <trkpt lat="43.81339" lon="5.91292">
        <ele>494.2550049</ele>
        <time>2010-06-27T08:53:59Z</time>
      </trkpt>
      <trkpt lat="43.81352" lon="5.91219">
        <ele>492.8129883</ele>
        <time>2010-06-27T08:54:04Z</time>
      </trkpt>
      <trkpt lat="43.8135" lon="5.91159">
        <ele>491.8516846</ele>
        <time>2010-06-27T08:54:08Z</time>
      </trkpt>
      <trkpt lat="43.81336" lon="5.91102">
        <ele>491.3709717</ele>
        <time>2010-06-27T08:54:12Z</time>
      </trkpt>
      <trkpt lat="43.81312" lon="5.91035">
        <ele>490.40979</ele>
        <time>2010-06-27T08:54:17Z</time>
      </trkpt>
      <trkpt lat="43.81308" lon="5.90977">
        <ele>489.9290771</ele>
        <time>2010-06-27T08:54:21Z</time>
      </trkpt>
      <trkpt lat="43.8132" lon="5.90938">
        <ele>488.9677734</ele>
        <time>2010-06-27T08:54:24Z</time>
      </trkpt>
      <trkpt lat="43.81332" lon="5.90915">
        <ele>488.4871826</ele>
        <time>2010-06-27T08:54:26Z</time>
      </trkpt>
      <trkpt lat="43.81383" lon="5.90843">
        <ele>487.0450439</ele>
        <time>2010-06-27T08:54:33Z</time>
      </trkpt>
      <trkpt lat="43.81413" lon="5.90785">
        <ele>485.6030273</ele>
        <time>2010-06-27T08:54:38Z</time>
      </trkpt>
      <trkpt lat="43.81438" lon="5.90707">
        <ele>484.1611328</ele>
        <time>2010-06-27T08:54:44Z</time>
      </trkpt>
      <trkpt lat="43.81443" lon="5.90637">
        <ele>482.7192383</ele>
        <time>2010-06-27T08:54:49Z</time>
      </trkpt>
      <trkpt lat="43.81442" lon="5.90622">
        <ele>482.7192383</ele>
        <time>2010-06-27T08:54:50Z</time>
      </trkpt>
      <trkpt lat="43.81425" lon="5.90557">
        <ele>481.2772217</ele>
        <time>2010-06-27T08:54:55Z</time>
      </trkpt>
      <trkpt lat="43.81397" lon="5.9048">
        <ele>479.3544922</ele>
        <time>2010-06-27T08:55:01Z</time>
      </trkpt>
      <trkpt lat="43.81383" lon="5.90411">
        <ele>478.8739014</ele>
        <time>2010-06-27T08:55:06Z</time>
      </trkpt>
      <trkpt lat="43.8136" lon="5.90329">
        <ele>477.9124756</ele>
        <time>2010-06-27T08:55:12Z</time>
      </trkpt>
      <trkpt lat="43.8133" lon="5.90269">
        <ele>477.4318848</ele>
        <time>2010-06-27T08:55:17Z</time>
      </trkpt>
      <trkpt lat="43.81289" lon="5.90185">
        <ele>475.9898682</ele>
        <time>2010-06-27T08:55:24Z</time>
      </trkpt>
      <trkpt lat="43.8126" lon="5.90088">
        <ele>474.0672607</ele>
        <time>2010-06-27T08:55:31Z</time>
      </trkpt>
      <trkpt lat="43.81228" lon="5.90008">
        <ele>472.1446533</ele>
        <time>2010-06-27T08:55:37Z</time>
      </trkpt>
      <trkpt lat="43.81204" lon="5.89958">
        <ele>470.7026367</ele>
        <time>2010-06-27T08:55:41Z</time>
      </trkpt>
      <trkpt lat="43.81163" lon="5.89909">
        <ele>468.2993164</ele>
        <time>2010-06-27T08:55:46Z</time>
      </trkpt>
      <trkpt lat="43.81115" lon="5.89874">
        <ele>465.8961182</ele>
        <time>2010-06-27T08:55:51Z</time>
      </trkpt>
      <trkpt lat="43.81035" lon="5.89822">
        <ele>463.012085</ele>
        <time>2010-06-27T08:55:59Z</time>
      </trkpt>
      <trkpt lat="43.80942" lon="5.89759">
        <ele>459.647583</ele>
        <time>2010-06-27T08:56:08Z</time>
      </trkpt>
      <trkpt lat="43.80893" lon="5.89716">
        <ele>457.7249756</ele>
        <time>2010-06-27T08:56:13Z</time>
      </trkpt>
      <trkpt lat="43.80859" lon="5.89653">
        <ele>455.3215332</ele>
        <time>2010-06-27T08:56:18Z</time>
      </trkpt>
      <trkpt lat="43.80817" lon="5.89563">
        <ele>452.4376221</ele>
        <time>2010-06-27T08:56:25Z</time>
      </trkpt>
      <trkpt lat="43.80779" lon="5.8951">
        <ele>450.9956055</ele>
        <time>2010-06-27T08:56:30Z</time>
      </trkpt>
      <trkpt lat="43.80714" lon="5.89429">
        <ele>449.072998</ele>
        <time>2010-06-27T08:56:38Z</time>
      </trkpt>
      <trkpt lat="43.80664" lon="5.89366">
        <ele>447.6309814</ele>
        <time>2010-06-27T08:56:44Z</time>
      </trkpt>
      <trkpt lat="43.80633" lon="5.89321">
        <ele>446.6696777</ele>
        <time>2010-06-27T08:56:48Z</time>
      </trkpt>
      <trkpt lat="43.80617" lon="5.89266">
        <ele>445.708374</ele>
        <time>2010-06-27T08:56:52Z</time>
      </trkpt>
      <trkpt lat="43.8061" lon="5.89193">
        <ele>444.2664795</ele>
        <time>2010-06-27T08:56:57Z</time>
      </trkpt>
      <trkpt lat="43.80601" lon="5.89074">
        <ele>441.8631592</ele>
        <time>2010-06-27T08:57:05Z</time>
      </trkpt>
      <trkpt lat="43.80585" lon="5.88988">
        <ele>439.4597168</ele>
        <time>2010-06-27T08:57:11Z</time>
      </trkpt>
      <trkpt lat="43.8056" lon="5.88903">
        <ele>437.5371094</ele>
        <time>2010-06-27T08:57:17Z</time>
      </trkpt>
      <trkpt lat="43.80533" lon="5.88798">
        <ele>435.1339111</ele>
        <time>2010-06-27T08:57:24Z</time>
      </trkpt>
      <trkpt lat="43.80527" lon="5.88734">
        <ele>433.2113037</ele>
        <time>2010-06-27T08:57:28Z</time>
      </trkpt>
      <trkpt lat="43.80531" lon="5.88669">
        <ele>431.2885742</ele>
        <time>2010-06-27T08:57:32Z</time>
      </trkpt>
      <trkpt lat="43.80546" lon="5.88606">
        <ele>429.3659668</ele>
        <time>2010-06-27T08:57:36Z</time>
      </trkpt>
      <trkpt lat="43.80574" lon="5.88534">
        <ele>426.9627686</ele>
        <time>2010-06-27T08:57:41Z</time>
      </trkpt>
      <trkpt lat="43.80631" lon="5.8839">
        <ele>422.6367188</ele>
        <time>2010-06-27T08:57:51Z</time>
      </trkpt>
      <trkpt lat="43.80688" lon="5.88249">
        <ele>417.8302002</ele>
        <time>2010-06-27T08:58:01Z</time>
      </trkpt>
      <trkpt lat="43.80717" lon="5.88158">
        <ele>415.9074707</ele>
        <time>2010-06-27T08:58:07Z</time>
      </trkpt>
      <trkpt lat="43.80728" lon="5.88077">
        <ele>414.4654541</ele>
        <time>2010-06-27T08:58:12Z</time>
      </trkpt>
      <trkpt lat="43.80744" lon="5.87931">
        <ele>411.1009521</ele>
        <time>2010-06-27T08:58:21Z</time>
      </trkpt>
      <trkpt lat="43.8076" lon="5.87785">
        <ele>406.7749023</ele>
        <time>2010-06-27T08:58:30Z</time>
      </trkpt>
      <trkpt lat="43.80768" lon="5.8767">
        <ele>402.4490967</ele>
        <time>2010-06-27T08:58:37Z</time>
      </trkpt>
      <trkpt lat="43.80761" lon="5.87587">
        <ele>400.5264893</ele>
        <time>2010-06-27T08:58:42Z</time>
      </trkpt>
      <trkpt lat="43.80739" lon="5.87476">
        <ele>397.6424561</ele>
        <time>2010-06-27T08:58:49Z</time>
      </trkpt>
      <trkpt lat="43.80711" lon="5.87337">
        <ele>395.2391357</ele>
        <time>2010-06-27T08:58:58Z</time>
      </trkpt>
      <trkpt lat="43.80683" lon="5.87198">
        <ele>392.8359375</ele>
        <time>2010-06-27T08:59:07Z</time>
      </trkpt>
      <trkpt lat="43.80661" lon="5.87088">
        <ele>390.913208</ele>
        <time>2010-06-27T08:59:14Z</time>
      </trkpt>
      <trkpt lat="43.80632" lon="5.86967">
        <ele>388.0292969</ele>
        <time>2010-06-27T08:59:22Z</time>
      </trkpt>
      <trkpt lat="43.80591" lon="5.86826">
        <ele>384.6647949</ele>
        <time>2010-06-27T08:59:32Z</time>
      </trkpt>
      <trkpt lat="43.80543" lon="5.86671">
        <ele>379.3774414</ele>
        <time>2010-06-27T08:59:43Z</time>
      </trkpt>
      <trkpt lat="43.80506" lon="5.86574">
        <ele>376.4935303</ele>
        <time>2010-06-27T08:59:50Z</time>
      </trkpt>
      <trkpt lat="43.80446" lon="5.86433">
        <ele>371.6868896</ele>
        <time>2010-06-27T09:00:00Z</time>
      </trkpt>
      <trkpt lat="43.80405" lon="5.8633">
        <ele>368.8029785</ele>
        <time>2010-06-27T09:00:07Z</time>
      </trkpt>
      <trkpt lat="43.80364" lon="5.8621">
        <ele>365.4383545</ele>
        <time>2010-06-27T09:00:15Z</time>
      </trkpt>
      <trkpt lat="43.80317" lon="5.861">
        <ele>362.5543213</ele>
        <time>2010-06-27T09:00:23Z</time>
      </trkpt>
      <trkpt lat="43.8025" lon="5.85973">
        <ele>358.7089844</ele>
        <time>2010-06-27T09:00:33Z</time>
      </trkpt>
      <trkpt lat="43.80205" lon="5.85882">
        <ele>356.3057861</ele>
        <time>2010-06-27T09:00:40Z</time>
      </trkpt>
      <trkpt lat="43.8015" lon="5.85774">
        <ele>352.9411621</ele>
        <time>2010-06-27T09:00:48Z</time>
      </trkpt>
      <trkpt lat="43.80108" lon="5.85694">
        <ele>350.5378418</ele>
        <time>2010-06-27T09:00:54Z</time>
      </trkpt>
      <trkpt lat="43.80059" lon="5.85601">
        <ele>349.0958252</ele>
        <time>2010-06-27T09:01:01Z</time>
      </trkpt>
      <trkpt lat="43.80005" lon="5.85496">
        <ele>346.2120361</ele>
        <time>2010-06-27T09:01:09Z</time>
      </trkpt>
      <trkpt lat="43.79973" lon="5.8543">
        <ele>344.7700195</ele>
        <time>2010-06-27T09:01:14Z</time>
      </trkpt>
      <trkpt lat="43.79925" lon="5.85318">
        <ele>342.84729</ele>
        <time>2010-06-27T09:01:22Z</time>
      </trkpt>
      <trkpt lat="43.79889" lon="5.85212">
        <ele>341.4052734</ele>
        <time>2010-06-27T09:01:29Z</time>
      </trkpt>
      <trkpt lat="43.79844" lon="5.85077">
        <ele>338.5214844</ele>
        <time>2010-06-27T09:01:38Z</time>
      </trkpt>
      <trkpt lat="43.79806" lon="5.84962">
        <ele>335.1567383</ele>
        <time>2010-06-27T09:01:46Z</time>
      </trkpt>
      <trkpt lat="43.79776" lon="5.84861">
        <ele>332.75354</ele>
        <time>2010-06-27T09:01:53Z</time>
      </trkpt>
      <trkpt lat="43.79751" lon="5.84753">
        <ele>329.8695068</ele>
        <time>2010-06-27T09:02:00Z</time>
      </trkpt>
      <trkpt lat="43.79741" lon="5.84655">
        <ele>326.9855957</ele>
        <time>2010-06-27T09:02:06Z</time>
      </trkpt>
      <trkpt lat="43.79742" lon="5.84555">
        <ele>324.1015625</ele>
        <time>2010-06-27T09:02:12Z</time>
      </trkpt>
      <trkpt lat="43.79754" lon="5.84418">
        <ele>319.2950439</ele>
        <time>2010-06-27T09:02:20Z</time>
      </trkpt>
      <trkpt lat="43.79773" lon="5.8428">
        <ele>314.4884033</ele>
        <time>2010-06-27T09:02:28Z</time>
      </trkpt>
      <trkpt lat="43.79795" lon="5.84122">
        <ele>309.2011719</ele>
        <time>2010-06-27T09:02:37Z</time>
      </trkpt>
      <trkpt lat="43.79821" lon="5.83951">
        <ele>305.355957</ele>
        <time>2010-06-27T09:02:47Z</time>
      </trkpt>
      <trkpt lat="43.79843" lon="5.83872">
        <ele>302.9525146</ele>
        <time>2010-06-27T09:02:52Z</time>
      </trkpt>
      <trkpt lat="43.79876" lon="5.83782">
        <ele>301.0299072</ele>
        <time>2010-06-27T09:02:58Z</time>
      </trkpt>
      <trkpt lat="43.79924" lon="5.83651">
        <ele>299.5880127</ele>
        <time>2010-06-27T09:03:07Z</time>
      </trkpt>
      <trkpt lat="43.79961" lon="5.83551">
        <ele>298.1461182</ele>
        <time>2010-06-27T09:03:14Z</time>
      </trkpt>
      <trkpt lat="43.79986" lon="5.83483">
        <ele>297.6654053</ele>
        <time>2010-06-27T09:03:19Z</time>
      </trkpt>
      <trkpt lat="43.80016" lon="5.83394">
        <ele>297.1846924</ele>
        <time>2010-06-27T09:03:26Z</time>
      </trkpt>
      <trkpt lat="43.80019" lon="5.83382">
        <ele>296.7041016</ele>
        <time>2010-06-27T09:03:27Z</time>
      </trkpt>
      <trkpt lat="43.80041" lon="5.83346">
        <ele>295.7426758</ele>
        <time>2010-06-27T09:03:31Z</time>
      </trkpt>
      <trkpt lat="43.80048" lon="5.83329">
        <ele>295.2619629</ele>
        <time>2010-06-27T09:03:33Z</time>
      </trkpt>
      <trkpt lat="43.80072" lon="5.83271">
        <ele>295.2619629</ele>
        <time>2010-06-27T09:03:39Z</time>
      </trkpt>
      <trkpt lat="43.80102" lon="5.83205">
        <ele>293.8200684</ele>
        <time>2010-06-27T09:03:45Z</time>
      </trkpt>
      <trkpt lat="43.80128" lon="5.83147">
        <ele>293.3393555</ele>
        <time>2010-06-27T09:03:50Z</time>
      </trkpt>
      <trkpt lat="43.80165" lon="5.83067">
        <ele>292.3781738</ele>
        <time>2010-06-27T09:03:57Z</time>
      </trkpt>
      <trkpt lat="43.80199" lon="5.82988">
        <ele>292.3781738</ele>
        <time>2010-06-27T09:04:04Z</time>
      </trkpt>
      <trkpt lat="43.80232" lon="5.82919">
        <ele>291.8974609</ele>
        <time>2010-06-27T09:04:11Z</time>
      </trkpt>
      <trkpt lat="43.80264" lon="5.82848">
        <ele>291.416748</ele>
        <time>2010-06-27T09:04:18Z</time>
      </trkpt>
      <trkpt lat="43.80301" lon="5.82767">
        <ele>291.8974609</ele>
        <time>2010-06-27T09:04:26Z</time>
      </trkpt>
      <trkpt lat="43.80338" lon="5.82685">
        <ele>290.9361572</ele>
        <time>2010-06-27T09:04:34Z</time>
      </trkpt>
      <trkpt lat="43.80385" lon="5.82581">
        <ele>291.416748</ele>
        <time>2010-06-27T09:04:44Z</time>
      </trkpt>
      <trkpt lat="43.8042" lon="5.82503">
        <ele>293.8200684</ele>
        <time>2010-06-27T09:04:52Z</time>
      </trkpt>
      <trkpt lat="43.80468" lon="5.82394">
        <ele>295.7426758</ele>
        <time>2010-06-27T09:05:03Z</time>
      </trkpt>
      <trkpt lat="43.80514" lon="5.82293">
        <ele>294.3007813</ele>
        <time>2010-06-27T09:05:13Z</time>
      </trkpt>
      <trkpt lat="43.80557" lon="5.82199">
        <ele>293.8200684</ele>
        <time>2010-06-27T09:05:22Z</time>
      </trkpt>
      <trkpt lat="43.80598" lon="5.8211">
        <ele>293.8200684</ele>
        <time>2010-06-27T09:05:31Z</time>
      </trkpt>
      <trkpt lat="43.80636" lon="5.82019">
        <ele>294.3007813</ele>
        <time>2010-06-27T09:05:40Z</time>
      </trkpt>
      <trkpt lat="43.80655" lon="5.81983">
        <ele>294.3007813</ele>
        <time>2010-06-27T09:05:44Z</time>
      </trkpt>
      <trkpt lat="43.80667" lon="5.81969">
        <ele>293.8200684</ele>
        <time>2010-06-27T09:05:46Z</time>
      </trkpt>
      <trkpt lat="43.80682" lon="5.81937">
        <ele>293.8200684</ele>
        <time>2010-06-27T09:05:50Z</time>
      </trkpt>
      <trkpt lat="43.80683" lon="5.81917">
        <ele>293.8200684</ele>
        <time>2010-06-27T09:05:52Z</time>
      </trkpt>
      <trkpt lat="43.80697" lon="5.81866">
        <ele>294.7813721</ele>
        <time>2010-06-27T09:05:57Z</time>
      </trkpt>
      <trkpt lat="43.80725" lon="5.8179">
        <ele>297.1846924</ele>
        <time>2010-06-27T09:06:04Z</time>
      </trkpt>
      <trkpt lat="43.80759" lon="5.81709">
        <ele>297.6654053</ele>
        <time>2010-06-27T09:06:12Z</time>
      </trkpt>
      <trkpt lat="43.80807" lon="5.81605">
        <ele>296.2235107</ele>
        <time>2010-06-27T09:06:22Z</time>
      </trkpt>
      <trkpt lat="43.80848" lon="5.81532">
        <ele>294.3007813</ele>
        <time>2010-06-27T09:06:29Z</time>
      </trkpt>
      <trkpt lat="43.80896" lon="5.81447">
        <ele>293.8200684</ele>
        <time>2010-06-27T09:06:37Z</time>
      </trkpt>
      <trkpt lat="43.80938" lon="5.81366">
        <ele>294.3007813</ele>
        <time>2010-06-27T09:06:45Z</time>
      </trkpt>
      <trkpt lat="43.8098" lon="5.81275">
        <ele>295.7426758</ele>
        <time>2010-06-27T09:06:54Z</time>
      </trkpt>
      <trkpt lat="43.81011" lon="5.81204">
        <ele>295.7426758</ele>
        <time>2010-06-27T09:07:01Z</time>
      </trkpt>
      <trkpt lat="43.81016" lon="5.81193">
        <ele>295.7426758</ele>
        <time>2010-06-27T09:07:02Z</time>
      </trkpt>
      <trkpt lat="43.81054" lon="5.81138">
        <ele>296.2235107</ele>
        <time>2010-06-27T09:07:08Z</time>
      </trkpt>
      <trkpt lat="43.81082" lon="5.81088">
        <ele>296.2235107</ele>
        <time>2010-06-27T09:07:13Z</time>
      </trkpt>
      <trkpt lat="43.81114" lon="5.81027">
        <ele>295.7426758</ele>
        <time>2010-06-27T09:07:19Z</time>
      </trkpt>
      <trkpt lat="43.81149" lon="5.80958">
        <ele>296.7041016</ele>
        <time>2010-06-27T09:07:26Z</time>
      </trkpt>
      <trkpt lat="43.81178" lon="5.80899">
        <ele>297.1846924</ele>
        <time>2010-06-27T09:07:32Z</time>
      </trkpt>
      <trkpt lat="43.81206" lon="5.80841">
        <ele>297.1846924</ele>
        <time>2010-06-27T09:07:38Z</time>
      </trkpt>
      <trkpt lat="43.81237" lon="5.80763">
        <ele>298.626709</ele>
        <time>2010-06-27T09:07:46Z</time>
      </trkpt>
      <trkpt lat="43.81271" lon="5.80673">
        <ele>300.0687256</ele>
        <time>2010-06-27T09:07:55Z</time>
      </trkpt>
      <trkpt lat="43.81303" lon="5.80586">
        <ele>301.5106201</ele>
        <time>2010-06-27T09:08:04Z</time>
      </trkpt>
      <trkpt lat="43.81322" lon="5.80531">
        <ele>302.4719238</ele>
        <time>2010-06-27T09:08:10Z</time>
      </trkpt>
      <trkpt lat="43.81351" lon="5.80452">
        <ele>303.4332275</ele>
        <time>2010-06-27T09:08:19Z</time>
      </trkpt>
      <trkpt lat="43.81376" lon="5.80389">
        <ele>303.4332275</ele>
        <time>2010-06-27T09:08:26Z</time>
      </trkpt>
      <trkpt lat="43.81407" lon="5.80327">
        <ele>303.4332275</ele>
        <time>2010-06-27T09:08:33Z</time>
      </trkpt>
      <trkpt lat="43.81448" lon="5.80259">
        <ele>303.4332275</ele>
        <time>2010-06-27T09:08:41Z</time>
      </trkpt>
      <trkpt lat="43.81482" lon="5.80201">
        <ele>303.4332275</ele>
        <time>2010-06-27T09:08:48Z</time>
      </trkpt>
      <trkpt lat="43.81516" lon="5.80147">
        <ele>303.9139404</ele>
        <time>2010-06-27T09:08:55Z</time>
      </trkpt>
      <trkpt lat="43.81555" lon="5.80092">
        <ele>306.3172607</ele>
        <time>2010-06-27T09:09:03Z</time>
      </trkpt>
      <trkpt lat="43.81601" lon="5.80036">
        <ele>308.2398682</ele>
        <time>2010-06-27T09:09:12Z</time>
      </trkpt>
      <trkpt lat="43.81636" lon="5.79993">
        <ele>311.1237793</ele>
        <time>2010-06-27T09:09:19Z</time>
      </trkpt>
      <trkpt lat="43.81646" lon="5.79982">
        <ele>311.6044922</ele>
        <time>2010-06-27T09:09:21Z</time>
      </trkpt>
      <trkpt lat="43.81661" lon="5.79975">
        <ele>311.6044922</ele>
        <time>2010-06-27T09:09:24Z</time>
      </trkpt>
      <trkpt lat="43.81672" lon="5.79983">
        <ele>311.6044922</ele>
        <time>2010-06-27T09:09:26Z</time>
      </trkpt>
      <trkpt lat="43.81715" lon="5.80027">
        <ele>311.1237793</ele>
        <time>2010-06-27T09:09:33Z</time>
      </trkpt>
      <trkpt lat="43.81759" lon="5.80065">
        <ele>311.1237793</ele>
        <time>2010-06-27T09:09:39Z</time>
      </trkpt>
      <trkpt lat="43.81812" lon="5.80094">
        <ele>310.1624756</ele>
        <time>2010-06-27T09:09:45Z</time>
      </trkpt>
      <trkpt lat="43.81859" lon="5.80102">
        <ele>309.6818848</ele>
        <time>2010-06-27T09:09:50Z</time>
      </trkpt>
      <trkpt lat="43.81915" lon="5.80097">
        <ele>309.6818848</ele>
        <time>2010-06-27T09:09:56Z</time>
      </trkpt>
      <trkpt lat="43.81994" lon="5.80088">
        <ele>310.6430664</ele>
        <time>2010-06-27T09:10:05Z</time>
      </trkpt>
      <trkpt lat="43.82046" lon="5.80086">
        <ele>310.6430664</ele>
        <time>2010-06-27T09:10:11Z</time>
      </trkpt>
      <trkpt lat="43.82063" lon="5.80087">
        <ele>310.6430664</ele>
        <time>2010-06-27T09:10:13Z</time>
      </trkpt>
      <trkpt lat="43.82114" lon="5.80108">
        <ele>310.6430664</ele>
        <time>2010-06-27T09:10:19Z</time>
      </trkpt>
      <trkpt lat="43.82161" lon="5.80142">
        <ele>311.1237793</ele>
        <time>2010-06-27T09:10:25Z</time>
      </trkpt>
      <trkpt lat="43.82233" lon="5.80193">
        <ele>312.0852051</ele>
        <time>2010-06-27T09:10:34Z</time>
      </trkpt>
      <trkpt lat="43.82295" lon="5.80236">
        <ele>314.0078125</ele>
        <time>2010-06-27T09:10:42Z</time>
      </trkpt>
      <trkpt lat="43.82339" lon="5.80275">
        <ele>315.4498291</ele>
        <time>2010-06-27T09:10:48Z</time>
      </trkpt>
      <trkpt lat="43.82383" lon="5.80317">
        <ele>315.4498291</ele>
        <time>2010-06-27T09:10:54Z</time>
      </trkpt>
      <trkpt lat="43.82413" lon="5.80348">
        <ele>314.9691162</ele>
        <time>2010-06-27T09:10:58Z</time>
      </trkpt>
      <trkpt lat="43.82442" lon="5.80399">
        <ele>314.9691162</ele>
        <time>2010-06-27T09:11:03Z</time>
      </trkpt>
      <trkpt lat="43.82451" lon="5.80422">
        <ele>314.9691162</ele>
        <time>2010-06-27T09:11:05Z</time>
      </trkpt>
      <trkpt lat="43.82467" lon="5.80518">
        <ele>315.4498291</ele>
        <time>2010-06-27T09:11:13Z</time>
      </trkpt>
      <trkpt lat="43.82481" lon="5.80625">
        <ele>313.5272217</ele>
        <time>2010-06-27T09:11:22Z</time>
      </trkpt>
      <trkpt lat="43.82497" lon="5.80727">
        <ele>310.6430664</ele>
        <time>2010-06-27T09:11:30Z</time>
      </trkpt>
      <trkpt lat="43.82508" lon="5.80817">
        <ele>309.2011719</ele>
        <time>2010-06-27T09:11:37Z</time>
      </trkpt>
      <trkpt lat="43.82519" lon="5.80914">
        <ele>309.2011719</ele>
        <time>2010-06-27T09:11:45Z</time>
      </trkpt>
      <trkpt lat="43.82528" lon="5.80999">
        <ele>309.6818848</ele>
        <time>2010-06-27T09:11:52Z</time>
      </trkpt>
      <trkpt lat="43.82535" lon="5.81082">
        <ele>310.6430664</ele>
        <time>2010-06-27T09:11:59Z</time>
      </trkpt>
      <trkpt lat="43.82532" lon="5.81142">
        <ele>311.1237793</ele>
        <time>2010-06-27T09:12:04Z</time>
      </trkpt>
      <trkpt lat="43.82536" lon="5.81199">
        <ele>311.6044922</ele>
        <time>2010-06-27T09:12:09Z</time>
      </trkpt>
      <trkpt lat="43.82555" lon="5.81281">
        <ele>310.6430664</ele>
        <time>2010-06-27T09:12:16Z</time>
      </trkpt>
      <trkpt lat="43.82565" lon="5.81341">
        <ele>310.6430664</ele>
        <time>2010-06-27T09:12:21Z</time>
      </trkpt>
      <trkpt lat="43.82574" lon="5.81427">
        <ele>310.6430664</ele>
        <time>2010-06-27T09:12:28Z</time>
      </trkpt>
      <trkpt lat="43.82581" lon="5.81499">
        <ele>311.1237793</ele>
        <time>2010-06-27T09:12:34Z</time>
      </trkpt>
      <trkpt lat="43.82587" lon="5.81557">
        <ele>311.1237793</ele>
        <time>2010-06-27T09:12:39Z</time>
      </trkpt>
      <trkpt lat="43.82597" lon="5.81664">
        <ele>311.6044922</ele>
        <time>2010-06-27T09:12:48Z</time>
      </trkpt>
      <trkpt lat="43.82608" lon="5.81759">
        <ele>311.6044922</ele>
        <time>2010-06-27T09:12:56Z</time>
      </trkpt>
      <trkpt lat="43.82622" lon="5.8184">
        <ele>312.0852051</ele>
        <time>2010-06-27T09:13:03Z</time>
      </trkpt>
      <trkpt lat="43.82644" lon="5.81915">
        <ele>312.0852051</ele>
        <time>2010-06-27T09:13:10Z</time>
      </trkpt>
      <trkpt lat="43.82667" lon="5.81987">
        <ele>313.0465088</ele>
        <time>2010-06-27T09:13:17Z</time>
      </trkpt>
      <trkpt lat="43.82698" lon="5.82064">
        <ele>313.5272217</ele>
        <time>2010-06-27T09:13:25Z</time>
      </trkpt>
      <trkpt lat="43.82709" lon="5.82081">
        <ele>313.5272217</ele>
        <time>2010-06-27T09:13:27Z</time>
      </trkpt>
      <trkpt lat="43.82747" lon="5.82112">
        <ele>311.6044922</ele>
        <time>2010-06-27T09:13:32Z</time>
      </trkpt>
      <trkpt lat="43.8278" lon="5.82142">
        <ele>309.6818848</ele>
        <time>2010-06-27T09:13:36Z</time>
      </trkpt>
      <trkpt lat="43.82836" lon="5.82207">
        <ele>307.2785645</ele>
        <time>2010-06-27T09:13:43Z</time>
      </trkpt>
      <trkpt lat="43.82888" lon="5.82264">
        <ele>307.2785645</ele>
        <time>2010-06-27T09:13:50Z</time>
      </trkpt>
      <trkpt lat="43.82936" lon="5.82315">
        <ele>306.3172607</ele>
        <time>2010-06-27T09:13:57Z</time>
      </trkpt>
      <trkpt lat="43.82991" lon="5.82374">
        <ele>304.3946533</ele>
        <time>2010-06-27T09:14:05Z</time>
      </trkpt>
      <trkpt lat="43.83035" lon="5.82422">
        <ele>304.3946533</ele>
        <time>2010-06-27T09:14:12Z</time>
      </trkpt>
      <trkpt lat="43.8311" lon="5.82501">
        <ele>306.7978516</ele>
        <time>2010-06-27T09:14:24Z</time>
      </trkpt>
      <trkpt lat="43.83157" lon="5.82551">
        <ele>308.2398682</ele>
        <time>2010-06-27T09:14:32Z</time>
      </trkpt>
      <trkpt lat="43.83198" lon="5.82593">
        <ele>310.1624756</ele>
        <time>2010-06-27T09:14:39Z</time>
      </trkpt>
      <trkpt lat="43.83248" lon="5.82653">
        <ele>311.6044922</ele>
        <time>2010-06-27T09:14:48Z</time>
      </trkpt>
      <trkpt lat="43.83283" lon="5.82691">
        <ele>311.6044922</ele>
        <time>2010-06-27T09:14:54Z</time>
      </trkpt>
      <trkpt lat="43.83289" lon="5.82697">
        <ele>311.6044922</ele>
        <time>2010-06-27T09:14:55Z</time>
      </trkpt>
      <trkpt lat="43.83317" lon="5.82715">
        <ele>311.6044922</ele>
        <time>2010-06-27T09:14:59Z</time>
      </trkpt>
      <trkpt lat="43.83388" lon="5.82737">
        <ele>311.6044922</ele>
        <time>2010-06-27T09:15:08Z</time>
      </trkpt>
      <trkpt lat="43.83443" lon="5.82748">
        <ele>312.0852051</ele>
        <time>2010-06-27T09:15:15Z</time>
      </trkpt>
      <trkpt lat="43.83508" lon="5.82756">
        <ele>313.0465088</ele>
        <time>2010-06-27T09:15:23Z</time>
      </trkpt>
      <trkpt lat="43.83564" lon="5.82764">
        <ele>313.5272217</ele>
        <time>2010-06-27T09:15:30Z</time>
      </trkpt>
      <trkpt lat="43.83601" lon="5.82789">
        <ele>312.0852051</ele>
        <time>2010-06-27T09:15:35Z</time>
      </trkpt>
      <trkpt lat="43.83625" lon="5.82809">
        <ele>311.1237793</ele>
        <time>2010-06-27T09:15:38Z</time>
      </trkpt>
      <trkpt lat="43.83652" lon="5.82849">
        <ele>310.1624756</ele>
        <time>2010-06-27T09:15:42Z</time>
      </trkpt>
      <trkpt lat="43.83656" lon="5.82861">
        <ele>309.6818848</ele>
        <time>2010-06-27T09:15:43Z</time>
      </trkpt>
      <trkpt lat="43.83687" lon="5.82971">
        <ele>310.1624756</ele>
        <time>2010-06-27T09:15:52Z</time>
      </trkpt>
      <trkpt lat="43.8371" lon="5.83078">
        <ele>311.6044922</ele>
        <time>2010-06-27T09:16:01Z</time>
      </trkpt>
      <trkpt lat="43.8372" lon="5.83137">
        <ele>311.1237793</ele>
        <time>2010-06-27T09:16:06Z</time>
      </trkpt>
      <trkpt lat="43.83738" lon="5.83174">
        <ele>310.6430664</ele>
        <time>2010-06-27T09:16:10Z</time>
      </trkpt>
      <trkpt lat="43.83741" lon="5.832">
        <ele>310.1624756</ele>
        <time>2010-06-27T09:16:13Z</time>
      </trkpt>
      <trkpt lat="43.83727" lon="5.83219">
        <ele>309.2011719</ele>
        <time>2010-06-27T09:16:16Z</time>
      </trkpt>
      <trkpt lat="43.83682" lon="5.83266">
        <ele>307.7592773</ele>
        <time>2010-06-27T09:16:23Z</time>
      </trkpt>
      <trkpt lat="43.83639" lon="5.83322">
        <ele>306.7978516</ele>
        <time>2010-06-27T09:16:30Z</time>
      </trkpt>
      <trkpt lat="43.83602" lon="5.83389">
        <ele>306.3172607</ele>
        <time>2010-06-27T09:16:37Z</time>
      </trkpt>
      <trkpt lat="43.83545" lon="5.83494">
        <ele>304.8752441</ele>
        <time>2010-06-27T09:16:48Z</time>
      </trkpt>
      <trkpt lat="43.83521" lon="5.83543">
        <ele>304.3946533</ele>
        <time>2010-06-27T09:16:53Z</time>
      </trkpt>
      <trkpt lat="43.83509" lon="5.83587">
        <ele>303.9139404</ele>
        <time>2010-06-27T09:16:57Z</time>
      </trkpt>
      <trkpt lat="43.83506" lon="5.83611">
        <ele>303.9139404</ele>
        <time>2010-06-27T09:16:59Z</time>
      </trkpt>
      <trkpt lat="43.83485" lon="5.83665">
        <ele>303.9139404</ele>
        <time>2010-06-27T09:17:04Z</time>
      </trkpt>
      <trkpt lat="43.83433" lon="5.83761">
        <ele>303.4332275</ele>
        <time>2010-06-27T09:17:14Z</time>
      </trkpt>
      <trkpt lat="43.83381" lon="5.83855">
        <ele>302.4719238</ele>
        <time>2010-06-27T09:17:24Z</time>
      </trkpt>
      <trkpt lat="43.83372" lon="5.83873">
        <ele>302.4719238</ele>
        <time>2010-06-27T09:17:26Z</time>
      </trkpt>
      <trkpt lat="43.83352" lon="5.83938">
        <ele>301.0299072</ele>
        <time>2010-06-27T09:17:33Z</time>
      </trkpt>
      <trkpt lat="43.83351" lon="5.83945">
        <ele>301.0299072</ele>
        <time>2010-06-27T09:17:34Z</time>
      </trkpt>
      <trkpt lat="43.83334" lon="5.83958">
        <ele>299.5880127</ele>
        <time>2010-06-27T09:17:38Z</time>
      </trkpt>
      <trkpt lat="43.83332" lon="5.8396">
        <ele>299.5880127</ele>
        <time>2010-06-27T09:17:39Z</time>
      </trkpt>
      <trkpt lat="43.83329" lon="5.83961">
        <ele>299.5880127</ele>
        <time>2010-06-27T09:17:41Z</time>
      </trkpt>
      <trkpt lat="43.83328" lon="5.83962">
        <ele>299.5880127</ele>
        <time>2010-06-27T09:17:43Z</time>
      </trkpt>
    </trkseg>
  </trk>
</gpx>